Time,TemperatureF,DewpointF,PressureIn,WindDirection,WindDirectionDegrees,WindSpeedMPH,WindSpeedGustMPH,Humidity,HourlyPrecipIn,Conditions,Clouds,dailyrainin,SoftwareType,DateUTC
2013-02-19 00:10:00,54.5,31.2,30.19,North,0,7.0,7.0,42,0.00,,,0.00,WUHU21623XXSP,2013-02-19 06:10:00,
2013-02-19 00:15:00,54.1,31.4,30.20,NNW,343,5.0,7.0,42,0.00,,,0.00,WUHU21623XXSP,2013-02-19 06:15:00,
2013-02-19 00:20:00,54.1,31.4,30.20,NW,323,4.0,9.0,42,0.00,,,0.00,WUHU21623XXSP,2013-02-19 06:20:00,
2013-02-19 00:25:00,54.0,31.3,30.20,NNE,22,7.0,12.0,42,0.00,,,0.00,WUHU21623XXSP,2013-02-19 06:25:00,
2013-02-19 00:26:00,54.0,31.3,30.20,NNW,337,10.0,12.0,42,0.00,,,0.00,WUHU21623XXSP,2013-02-19 06:26:00,
2013-02-19 00:30:00,53.8,31.1,30.20,NNW,337,4.0,12.0,42,0.00,,,0.00,WUHU21623XXSP,2013-02-19 06:30:00,
2013-02-19 00:31:00,53.8,31.1,30.20,NNW,337,9.0,12.0,42,0.00,,,0.00,WUHU21623XXSP,2013-02-19 06:31:00,
2013-02-19 00:35:00,53.6,31.0,30.21,NNW,337,4.0,10.0,42,0.00,,,0.00,WUHU21623XXSP,2013-02-19 06:35:00,
2013-02-19 00:36:00,53.6,31.0,30.21,NW,322,3.0,9.0,42,0.00,,,0.00,WUHU21623XXSP,2013-02-19 06:36:00,
2013-02-19 00:40:00,53.4,30.8,30.21,NNW,337,5.0,9.0,42,0.00,,,0.00,WUHU21623XXSP,2013-02-19 06:40:00,
2013-02-19 00:41:00,53.4,30.8,30.21,WNW,292,4.0,7.0,42,0.00,,,0.00,WUHU21623XXSP,2013-02-19 06:41:00,
2013-02-19 00:45:00,53.4,30.8,30.21,NNW,337,4.0,9.0,42,0.00,,,0.00,WUHU21623XXSP,2013-02-19 06:45:00,
2013-02-19 00:46:00,53.4,30.8,30.21,NW,315,5.0,9.0,42,0.00,,,0.00,WUHU21623XXSP,2013-02-19 06:46:00,
2013-02-19 00:50:00,53.4,30.8,30.21,NNW,333,3.0,9.0,42,0.00,,,0.00,WUHU21623XXSP,2013-02-19 06:50:00,
2013-02-19 00:51:00,53.4,30.8,30.21,NNW,333,3.0,9.0,42,0.00,,,0.00,WUHU21623XXSP,2013-02-19 06:51:00,
2013-02-19 00:56:00,53.4,30.8,30.21,NW,315,7.0,9.0,42,0.00,,,0.00,WUHU21623XXSP,2013-02-19 06:56:00,
2013-02-19 01:10:00,53.2,30.6,30.21,NW,315,3.0,3.0,42,0.00,,,0.00,WUHU21623XXSP,2013-02-19 07:10:00,
2013-02-19 01:15:00,52.9,30.3,30.22,NNW,329,4.0,10.0,42,0.00,,,0.00,WUHU21623XXSP,2013-02-19 07:15:00,
2013-02-19 01:20:00,52.7,30.1,30.22,NNW,344,5.0,10.0,42,0.00,,,0.00,WUHU21623XXSP,2013-02-19 07:20:00,
2013-02-19 01:25:00,52.7,30.1,30.22,NNW,327,5.0,8.0,42,0.00,,,0.00,WUHU21623XXSP,2013-02-19 07:25:00,
2013-02-19 01:30:00,52.7,30.1,30.22,NNW,342,5.0,9.0,42,0.00,,,0.00,WUHU21623XXSP,2013-02-19 07:30:00,
2013-02-19 01:35:00,52.5,30.0,30.22,NNW,335,5.0,9.0,42,0.00,,,0.00,WUHU21623XXSP,2013-02-19 07:35:00,
2013-02-19 01:40:00,52.5,30.0,30.22,North,355,5.0,9.0,42,0.00,,,0.00,WUHU21623XXSP,2013-02-19 07:40:00,
2013-02-19 01:41:00,52.5,30.0,30.22,North,358,5.0,9.0,42,0.00,,,0.00,WUHU21623XXSP,2013-02-19 07:41:00,
2013-02-19 01:45:00,52.3,29.8,30.22,NW,326,5.0,9.0,42,0.00,,,0.00,WUHU21623XXSP,2013-02-19 07:45:00,
2013-02-19 01:46:00,52.3,29.8,30.22,North,0,6.0,9.0,42,0.00,,,0.00,WUHU21623XXSP,2013-02-19 07:46:00,
2013-02-19 01:50:00,52.3,30.4,30.22,North,0,6.0,8.0,43,0.00,,,0.00,WUHU21623XXSP,2013-02-19 07:50:00,
2013-02-19 01:51:00,52.3,30.4,30.22,NNW,344,4.0,8.0,43,0.00,,,0.00,WUHU21623XXSP,2013-02-19 07:51:00,
2013-02-19 01:56:00,52.3,30.4,30.22,NW,315,4.0,9.0,43,0.00,,,0.00,WUHU21623XXSP,2013-02-19 07:56:00,
2013-02-19 02:09:00,52.3,30.4,30.22,NNW,337,4.0,4.0,43,0.00,,,0.00,WUHU21623XXSP,2013-02-19 08:09:00,
2013-02-19 02:14:00,52.0,30.1,30.22,NNW,337,5.0,8.0,43,0.00,,,0.00,WUHU21623XXSP,2013-02-19 08:14:00,
2013-02-19 02:19:00,52.0,30.1,30.22,North,357,3.0,13.0,43,0.00,,,0.00,WUHU21623XXSP,2013-02-19 08:19:00,
2013-02-19 02:24:00,51.8,29.9,30.22,North,0,3.0,13.0,43,0.00,,,0.00,WUHU21623XXSP,2013-02-19 08:24:00,
2013-02-19 02:29:00,51.8,29.9,30.22,North,7,3.0,11.0,43,0.00,,,0.00,WUHU21623XXSP,2013-02-19 08:29:00,
2013-02-19 02:34:00,51.6,29.7,30.21,NNE,16,7.0,11.0,43,0.00,,,0.00,WUHU21623XXSP,2013-02-19 08:34:00,
2013-02-19 02:39:00,51.6,29.7,30.21,NNE,22,6.0,10.0,43,0.00,,,0.00,WUHU21623XXSP,2013-02-19 08:39:00,
2013-02-19 02:40:00,51.6,29.7,30.21,NNE,22,6.0,10.0,43,0.00,,,0.00,WUHU21623XXSP,2013-02-19 08:40:00,
2013-02-19 02:45:00,51.6,30.3,30.21,North,0,9.0,13.0,44,0.00,,,0.00,WUHU21623XXSP,2013-02-19 08:45:00,
2013-02-19 02:50:00,51.4,30.1,30.20,North,4,7.0,13.0,44,0.00,,,0.00,WUHU21623XXSP,2013-02-19 08:50:00,
2013-02-19 02:55:00,51.3,30.0,30.21,NE,45,9.0,13.0,44,0.00,,,0.00,WUHU21623XXSP,2013-02-19 08:55:00,
2013-02-19 03:00:00,51.1,29.8,30.21,NNE,22,9.0,13.0,44,0.00,,,0.00,WUHU21623XXSP,2013-02-19 09:00:00,
2013-02-19 03:01:00,51.1,29.8,30.21,NNE,23,9.0,13.0,44,0.00,,,0.00,WUHU21623XXSP,2013-02-19 09:01:00,
2013-02-19 03:05:00,50.9,29.6,30.21,NE,45,9.0,12.0,44,0.00,,,0.00,WUHU21623XXSP,2013-02-19 09:05:00,
2013-02-19 03:06:00,50.9,29.6,30.21,NNE,33,8.0,12.0,44,0.00,,,0.00,WUHU21623XXSP,2013-02-19 09:06:00,
2013-02-19 03:10:00,50.7,29.5,30.21,NE,38,8.0,13.0,44,0.00,,,0.00,WUHU21623XXSP,2013-02-19 09:10:00,
2013-02-19 03:11:00,50.7,29.5,30.21,North,0,8.0,13.0,44,0.00,,,0.00,WUHU21623XXSP,2013-02-19 09:11:00,
2013-02-19 03:15:00,50.7,30.0,30.20,NNE,22,9.0,13.0,45,0.00,,,0.00,WUHU21623XXSP,2013-02-19 09:15:00,
2013-02-19 03:16:00,50.7,30.0,30.20,NE,45,8.0,13.0,45,0.00,,,0.00,WUHU21623XXSP,2013-02-19 09:16:00,
2013-02-19 03:20:00,50.7,30.0,30.21,NNE,24,7.0,12.0,45,0.00,,,0.00,WUHU21623XXSP,2013-02-19 09:20:00,
2013-02-19 03:21:00,50.7,30.0,30.20,NNE,26,9.0,16.0,45,0.00,,,0.00,WUHU21623XXSP,2013-02-19 09:21:00,
2013-02-19 03:25:00,50.7,30.0,30.21,NE,38,6.0,16.0,45,0.00,,,0.00,WUHU21623XXSP,2013-02-19 09:25:00,
2013-02-19 03:26:00,50.7,30.0,30.21,NE,49,7.0,16.0,45,0.00,,,0.00,WUHU21623XXSP,2013-02-19 09:26:00,
2013-02-19 03:27:00,50.7,30.0,30.20,NE,49,7.0,16.0,45,0.00,,,0.00,WUHU21623XXSP,2013-02-19 09:27:00,
2013-02-19 03:30:00,50.7,30.0,30.21,ENE,67,10.0,16.0,45,0.00,,,0.00,WUHU21623XXSP,2013-02-19 09:30:00,
2013-02-19 03:31:00,50.7,30.0,30.20,NE,49,8.0,11.0,45,0.00,,,0.00,WUHU21623XXSP,2013-02-19 09:31:00,
2013-02-19 03:32:00,50.7,30.0,30.20,NE,43,8.0,12.0,45,0.00,,,0.00,WUHU21623XXSP,2013-02-19 09:32:00,
2013-02-19 03:35:00,50.7,30.0,30.20,NE,43,5.0,13.0,45,0.00,,,0.00,WUHU21623XXSP,2013-02-19 09:35:00,
2013-02-19 03:36:00,50.7,30.0,30.20,NNE,22,12.0,13.0,45,0.00,,,0.00,WUHU21623XXSP,2013-02-19 09:36:00,
2013-02-19 03:37:00,50.7,30.0,30.20,NE,45,11.0,13.0,45,0.00,,,0.00,WUHU21623XXSP,2013-02-19 09:37:00,
2013-02-19 03:40:00,50.7,30.0,30.20,NE,38,11.0,16.0,45,0.00,,,0.00,WUHU21623XXSP,2013-02-19 09:40:00,
2013-02-19 03:42:00,50.5,29.9,30.20,NE,45,12.0,16.0,45,0.00,,,0.00,WUHU21623XXSP,2013-02-19 09:42:00,
2013-02-19 03:45:00,50.5,30.4,30.20,NNE,22,11.0,16.0,46,0.00,,,0.00,WUHU21623XXSP,2013-02-19 09:45:00,
2013-02-19 03:46:00,50.5,30.4,30.20,NNE,22,11.0,16.0,46,0.00,,,0.00,WUHU21623XXSP,2013-02-19 09:46:00,
2013-02-19 03:47:00,50.5,30.4,30.20,NNE,30,7.0,16.0,46,0.00,,,0.00,WUHU21623XXSP,2013-02-19 09:47:00,
2013-02-19 03:51:00,50.5,30.4,30.21,NE,34,7.0,12.0,46,0.00,,,0.00,WUHU21623XXSP,2013-02-19 09:51:00,
2013-02-19 03:52:00,50.5,30.4,30.21,North,0,9.0,12.0,46,0.00,,,0.00,WUHU21623XXSP,2013-02-19 09:52:00,
2013-02-19 03:56:00,50.4,30.3,30.22,NE,45,6.0,12.0,46,0.00,,,0.00,WUHU21623XXSP,2013-02-19 09:56:00,
2013-02-19 03:57:00,50.4,30.3,30.22,NNE,21,6.0,12.0,46,0.00,,,0.00,WUHU21623XXSP,2013-02-19 09:57:00,
2013-02-19 04:01:00,50.2,30.1,30.23,NNE,23,4.0,11.0,46,0.00,,,0.00,WUHU21623XXSP,2013-02-19 10:01:00,
2013-02-19 04:02:00,50.2,30.1,30.23,NNE,22,5.0,11.0,46,0.00,,,0.00,WUHU21623XXSP,2013-02-19 10:02:00,
2013-02-19 04:06:00,50.2,30.1,30.23,NE,45,8.0,12.0,46,0.00,,,0.00,WUHU21623XXSP,2013-02-19 10:06:00,
2013-02-19 04:07:00,50.2,30.1,30.23,NNE,22,7.0,12.0,46,0.00,,,0.00,WUHU21623XXSP,2013-02-19 10:07:00,
2013-02-19 04:11:00,50.2,30.1,30.23,NNE,22,6.0,12.0,46,0.00,,,0.00,WUHU21623XXSP,2013-02-19 10:11:00,
2013-02-19 04:12:00,50.2,30.1,30.23,North,0,8.0,12.0,46,0.00,,,0.00,WUHU21623XXSP,2013-02-19 10:12:00,
2013-02-19 04:16:00,50.2,30.1,30.23,NE,45,8.0,11.0,46,0.00,,,0.00,WUHU21623XXSP,2013-02-19 10:16:00,
2013-02-19 04:17:00,50.2,30.1,30.23,North,0,11.0,11.0,46,0.00,,,0.00,WUHU21623XXSP,2013-02-19 10:17:00,
2013-02-19 04:21:00,50.2,30.1,30.23,NNE,22,8.0,11.0,46,0.00,,,0.00,WUHU21623XXSP,2013-02-19 10:21:00,
2013-02-19 04:22:00,50.2,30.1,30.23,NNE,22,10.0,11.0,46,0.00,,,0.00,WUHU21623XXSP,2013-02-19 10:22:00,
2013-02-19 04:23:00,50.2,30.1,30.23,NNE,22,11.0,11.0,46,0.00,,,0.00,WUHU21623XXSP,2013-02-19 10:23:00,
2013-02-19 04:26:00,50.2,30.1,30.23,NE,37,8.0,11.0,46,0.00,,,0.00,WUHU21623XXSP,2013-02-19 10:26:00,
2013-02-19 04:27:00,50.2,30.1,30.23,NE,45,8.0,11.0,46,0.00,,,0.00,WUHU21623XXSP,2013-02-19 10:27:00,
2013-02-19 04:28:00,50.2,30.1,30.23,NNE,31,6.0,11.0,46,0.00,,,0.00,WUHU21623XXSP,2013-02-19 10:28:00,
2013-02-19 04:32:00,49.8,29.8,30.23,NNE,26,8.0,11.0,46,0.00,,,0.00,WUHU21623XXSP,2013-02-19 10:32:00,
2013-02-19 04:33:00,49.8,29.8,30.24,NNE,22,12.0,12.0,46,0.00,,,0.00,WUHU21623XXSP,2013-02-19 10:33:00,
2013-02-19 04:37:00,49.8,29.8,30.24,NE,45,8.0,12.0,46,0.00,,,0.00,WUHU21623XXSP,2013-02-19 10:37:00,
2013-02-19 04:38:00,49.8,29.8,30.24,NNE,22,14.0,14.0,46,0.00,,,0.00,WUHU21623XXSP,2013-02-19 10:38:00,
2013-02-19 04:42:00,49.8,29.8,30.24,NE,37,5.0,14.0,46,0.00,,,0.00,WUHU21623XXSP,2013-02-19 10:42:00,
2013-02-19 04:43:00,49.8,29.8,30.24,NE,45,9.0,14.0,46,0.00,,,0.00,WUHU21623XXSP,2013-02-19 10:43:00,
2013-02-19 04:47:00,49.8,29.8,30.25,NNE,32,5.0,14.0,46,0.00,,,0.00,WUHU21623XXSP,2013-02-19 10:47:00,
2013-02-19 04:48:00,49.8,29.8,30.25,NE,45,5.0,12.0,46,0.00,,,0.00,WUHU21623XXSP,2013-02-19 10:48:00,
2013-02-19 04:52:00,49.8,29.8,30.25,North,0,9.0,9.0,46,0.00,,,0.00,WUHU21623XXSP,2013-02-19 10:52:00,
2013-02-19 04:53:00,49.8,30.3,30.25,NNE,20,5.0,9.0,47,0.00,,,0.00,WUHU21623XXSP,2013-02-19 10:53:00,
2013-02-19 04:57:00,49.8,30.3,30.25,NNE,22,9.0,11.0,47,0.00,,,0.00,WUHU21623XXSP,2013-02-19 10:57:00,
2013-02-19 04:58:00,49.8,30.3,30.25,NNE,31,6.0,11.0,47,0.00,,,0.00,WUHU21623XXSP,2013-02-19 10:58:00,
2013-02-19 05:02:00,49.8,30.3,30.25,NNE,22,7.0,11.0,47,0.00,,,0.00,WUHU21623XXSP,2013-02-19 11:02:00,
2013-02-19 05:03:00,49.8,30.3,30.25,NNE,22,8.0,11.0,47,0.00,,,0.00,WUHU21623XXSP,2013-02-19 11:03:00,
2013-02-19 05:07:00,49.8,30.3,30.25,NE,45,5.0,9.0,47,0.00,,,0.00,WUHU21623XXSP,2013-02-19 11:07:00,
2013-02-19 05:08:00,49.8,30.3,30.25,NNE,24,3.0,9.0,47,0.00,,,0.00,WUHU21623XXSP,2013-02-19 11:08:00,
2013-02-19 05:09:00,49.8,30.3,30.25,NNE,31,4.0,9.0,47,0.00,,,0.00,WUHU21623XXSP,2013-02-19 11:09:00,
2013-02-19 05:13:00,49.8,30.3,30.25,NNE,22,6.0,9.0,47,0.00,,,0.00,WUHU21623XXSP,2013-02-19 11:13:00,
2013-02-19 05:14:00,49.8,30.3,30.25,NNE,32,5.0,9.0,47,0.00,,,0.00,WUHU21623XXSP,2013-02-19 11:14:00,
2013-02-19 05:18:00,49.8,30.3,30.26,NNE,22,4.0,7.0,47,0.00,,,0.00,WUHU21623XXSP,2013-02-19 11:18:00,
2013-02-19 05:19:00,49.8,30.3,30.26,North,0,3.0,7.0,47,0.00,,,0.00,WUHU21623XXSP,2013-02-19 11:19:00,
2013-02-19 05:23:00,49.8,30.3,30.26,North,0,5.0,7.0,47,0.00,,,0.00,WUHU21623XXSP,2013-02-19 11:23:00,
2013-02-19 05:24:00,49.8,30.3,30.26,North,10,3.0,7.0,47,0.00,,,0.00,WUHU21623XXSP,2013-02-19 11:24:00,
2013-02-19 05:28:00,49.8,30.3,30.26,NNE,22,5.0,5.0,47,0.00,,,0.00,WUHU21623XXSP,2013-02-19 11:28:00,
2013-02-19 05:29:00,49.8,30.3,30.26,NNE,14,3.0,5.0,47,0.00,,,0.00,WUHU21623XXSP,2013-02-19 11:29:00,
2013-02-19 05:33:00,49.8,30.3,30.27,NNE,25,2.0,5.0,47,0.00,,,0.00,WUHU21623XXSP,2013-02-19 11:33:00,
2013-02-19 05:34:00,49.8,30.3,30.27,NNE,22,2.0,5.0,47,0.00,,,0.00,WUHU21623XXSP,2013-02-19 11:34:00,
2013-02-19 05:38:00,49.8,30.3,30.28,North,357,2.0,4.0,47,0.00,,,0.00,WUHU21623XXSP,2013-02-19 11:38:00,
2013-02-19 05:39:00,49.8,30.3,30.28,North,0,2.0,4.0,47,0.00,,,0.00,WUHU21623XXSP,2013-02-19 11:39:00,
2013-02-19 05:43:00,49.8,30.3,30.28,NNE,22,2.0,3.0,47,0.00,,,0.00,WUHU21623XXSP,2013-02-19 11:43:00,
2013-02-19 05:44:00,49.8,30.3,30.28,North,0,2.0,3.0,47,0.00,,,0.00,WUHU21623XXSP,2013-02-19 11:44:00,
2013-02-19 05:45:00,49.8,30.3,30.28,North,10,2.0,3.0,47,0.00,,,0.00,WUHU21623XXSP,2013-02-19 11:45:00,
2013-02-19 05:48:00,49.8,30.3,30.28,NNE,22,2.0,3.0,47,0.00,,,0.00,WUHU21623XXSP,2013-02-19 11:48:00,
2013-02-19 05:49:00,49.8,30.3,30.28,East,90,0.0,3.0,47,0.00,,,0.00,WUHU21623XXSP,2013-02-19 11:49:00,
2013-02-19 05:50:00,49.8,30.3,30.28,NE,45,2.0,3.0,47,0.00,,,0.00,WUHU21623XXSP,2013-02-19 11:50:00,
2013-02-19 05:53:00,49.8,30.3,30.28,NE,38,1.0,3.0,47,0.00,,,0.00,WUHU21623XXSP,2013-02-19 11:53:00,
2013-02-19 05:54:00,49.8,30.3,30.28,NE,45,0.0,3.0,47,0.00,,,0.00,WUHU21623XXSP,2013-02-19 11:54:00,
2013-02-19 05:55:00,49.8,30.3,30.28,NE,55,2.0,3.0,47,0.00,,,0.00,WUHU21623XXSP,2013-02-19 11:55:00,
2013-02-19 05:58:00,49.8,30.3,30.28,NNE,29,2.0,3.0,47,0.00,,,0.00,WUHU21623XXSP,2013-02-19 11:58:00,
2013-02-19 05:59:00,49.8,30.3,30.28,NNE,22,2.0,3.0,47,0.00,,,0.00,WUHU21623XXSP,2013-02-19 11:59:00,
2013-02-19 06:00:00,49.8,30.3,30.28,NNE,31,2.0,3.0,47,0.00,,,0.00,WUHU21623XXSP,2013-02-19 12:00:00,
2013-02-19 06:03:00,49.8,30.3,30.29,NE,35,2.0,3.0,47,0.00,,,0.00,WUHU21623XXSP,2013-02-19 12:03:00,
2013-02-19 06:04:00,49.8,30.3,30.29,NE,45,2.0,3.0,47,0.00,,,0.00,WUHU21623XXSP,2013-02-19 12:04:00,
2013-02-19 06:05:00,49.8,30.3,30.29,NE,45,0.0,3.0,47,0.00,,,0.00,WUHU21623XXSP,2013-02-19 12:05:00,
2013-02-19 06:08:00,49.8,30.3,30.29,NE,45,2.0,3.0,47,0.00,,,0.00,WUHU21623XXSP,2013-02-19 12:08:00,
2013-02-19 06:10:00,49.8,30.3,30.30,ENE,62,2.0,3.0,47,0.00,,,0.00,WUHU21623XXSP,2013-02-19 12:10:00,
2013-02-19 06:13:00,49.8,30.3,30.29,NE,55,1.0,2.0,47,0.00,,,0.00,WUHU21623XXSP,2013-02-19 12:13:00,
2013-02-19 06:14:00,49.8,30.3,30.29,NE,55,1.0,2.0,47,0.00,,,0.00,WUHU21623XXSP,2013-02-19 12:14:00,
2013-02-19 06:15:00,49.8,30.3,30.29,NE,52,2.0,2.0,47,0.00,,,0.00,WUHU21623XXSP,2013-02-19 12:15:00,
2013-02-19 06:18:00,49.8,30.3,30.29,NNE,22,5.0,5.0,47,0.00,,,0.00,WUHU21623XXSP,2013-02-19 12:18:00,
2013-02-19 06:19:00,49.8,30.3,30.29,NNE,22,3.0,5.0,47,0.00,,,0.00,WUHU21623XXSP,2013-02-19 12:19:00,
2013-02-19 06:20:00,49.8,30.3,30.29,NNE,26,4.0,5.0,47,0.00,,,0.00,WUHU21623XXSP,2013-02-19 12:20:00,
2013-02-19 06:21:00,49.8,30.3,30.29,NNE,26,3.0,5.0,47,0.00,,,0.00,WUHU21623XXSP,2013-02-19 12:21:00,
2013-02-19 06:24:00,49.8,30.3,30.28,NE,45,4.0,5.0,47,0.00,,,0.00,WUHU21623XXSP,2013-02-19 12:24:00,
2013-02-19 06:25:00,49.8,30.3,30.28,NE,45,4.0,5.0,47,0.00,,,0.00,WUHU21623XXSP,2013-02-19 12:25:00,
2013-02-19 06:26:00,49.8,30.3,30.28,NE,42,3.0,5.0,47,0.00,,,0.00,WUHU21623XXSP,2013-02-19 12:26:00,
2013-02-19 06:29:00,49.8,30.3,30.28,NE,45,5.0,5.0,47,0.00,,,0.00,WUHU21623XXSP,2013-02-19 12:29:00,
2013-02-19 06:30:00,49.6,30.1,30.28,NE,50,4.0,5.0,47,0.00,,,0.00,WUHU21623XXSP,2013-02-19 12:30:00,
2013-02-19 06:31:00,49.6,30.1,30.28,NNE,22,7.0,7.0,47,0.00,,,0.00,WUHU21623XXSP,2013-02-19 12:31:00,
2013-02-19 06:34:00,49.6,30.1,30.28,NNE,22,5.0,7.0,47,0.00,,,0.00,WUHU21623XXSP,2013-02-19 12:34:00,
2013-02-19 06:35:00,49.6,30.1,30.29,NNE,21,4.0,7.0,47,0.00,,,0.00,WUHU21623XXSP,2013-02-19 12:35:00,
2013-02-19 06:36:00,49.6,30.1,30.29,NNE,22,5.0,7.0,47,0.00,,,0.00,WUHU21623XXSP,2013-02-19 12:36:00,
2013-02-19 06:39:00,49.6,30.1,30.29,NNE,22,5.0,7.0,47,0.00,,,0.00,WUHU21623XXSP,2013-02-19 12:39:00,
2013-02-19 06:41:00,49.6,30.1,30.29,NNE,16,3.0,7.0,47,0.00,,,0.00,WUHU21623XXSP,2013-02-19 12:41:00,
2013-02-19 06:44:00,49.5,30.0,30.30,NE,37,4.0,6.0,47,0.00,,,0.00,WUHU21623XXSP,2013-02-19 12:44:00,
2013-02-19 06:46:00,49.5,30.0,30.30,NE,45,3.0,6.0,47,0.00,,,0.00,WUHU21623XXSP,2013-02-19 12:46:00,
2013-02-19 06:49:00,49.3,29.8,30.30,NE,35,2.0,6.0,47,0.00,,,0.00,WUHU21623XXSP,2013-02-19 12:49:00,
2013-02-19 06:51:00,49.3,29.8,30.30,NNE,33,2.0,6.0,47,0.00,,,0.00,WUHU21623XXSP,2013-02-19 12:51:00,
2013-02-19 06:54:00,49.3,29.8,30.31,NNE,22,3.0,4.0,47,0.00,,,0.00,WUHU21623XXSP,2013-02-19 12:54:00,
2013-02-19 06:56:00,49.3,29.8,30.31,NE,39,2.0,4.0,47,0.00,,,0.00,WUHU21623XXSP,2013-02-19 12:56:00,
2013-02-19 06:57:00,49.3,29.8,30.31,NE,45,1.0,4.0,47,0.00,,,0.00,WUHU21623XXSP,2013-02-19 12:57:00,
2013-02-19 06:59:00,49.3,29.8,30.31,NE,45,0.0,4.0,47,0.00,,,0.00,WUHU21623XXSP,2013-02-19 12:59:00,
2013-02-19 07:00:00,49.3,29.8,30.31,ENE,67,0.0,4.0,47,0.00,,,0.00,WUHU21623XXSP,2013-02-19 13:00:00,
2013-02-19 07:01:00,49.3,29.8,30.32,NNE,32,2.0,4.0,47,0.00,,,0.00,WUHU21623XXSP,2013-02-19 13:01:00,
2013-02-19 07:02:00,49.3,29.8,30.32,NNE,32,2.0,4.0,47,0.00,,,0.00,WUHU21623XXSP,2013-02-19 13:02:00,
2013-02-19 07:04:00,49.5,30.0,30.32,ENE,67,1.0,3.0,47,0.00,,,0.00,WUHU21623XXSP,2013-02-19 13:04:00,
2013-02-19 07:05:00,49.5,30.0,30.32,NE,45,2.0,3.0,47,0.00,,,0.00,WUHU21623XXSP,2013-02-19 13:05:00,
2013-02-19 07:06:00,49.6,30.1,30.32,ENE,61,2.0,3.0,47,0.00,,,0.00,WUHU21623XXSP,2013-02-19 13:06:00,
2013-02-19 07:07:00,49.6,30.1,30.32,ENE,65,2.0,3.0,47,0.00,,,0.00,WUHU21623XXSP,2013-02-19 13:07:00,
2013-02-19 07:10:00,49.6,30.1,30.33,NE,35,2.0,3.0,47,0.00,,,0.00,WUHU21623XXSP,2013-02-19 13:10:00,
2013-02-19 07:11:00,49.6,30.1,30.33,NE,45,3.0,3.0,47,0.00,,,0.00,WUHU21623XXSP,2013-02-19 13:11:00,
2013-02-19 07:12:00,49.6,30.1,30.33,NE,38,3.0,3.0,47,0.00,,,0.00,WUHU21623XXSP,2013-02-19 13:12:00,
2013-02-19 07:15:00,49.6,30.1,30.33,NNE,32,1.0,3.0,47,0.00,,,0.00,WUHU21623XXSP,2013-02-19 13:15:00,
2013-02-19 07:16:00,49.6,30.1,30.33,NE,45,2.0,3.0,47,0.00,,,0.00,WUHU21623XXSP,2013-02-19 13:16:00,
2013-02-19 07:18:00,49.6,30.1,30.33,NE,45,2.0,3.0,47,0.00,,,0.00,WUHU21623XXSP,2013-02-19 13:18:00,
2013-02-19 07:20:00,49.6,30.1,30.33,NE,51,2.0,4.0,47,0.00,,,0.00,WUHU21623XXSP,2013-02-19 13:20:00,
2013-02-19 07:21:00,49.6,30.1,30.33,NE,44,3.0,5.0,47,0.00,,,0.00,WUHU21623XXSP,2013-02-19 13:21:00,
2013-02-19 07:23:00,49.6,30.1,30.33,NNE,20,2.0,5.0,47,0.00,,,0.00,WUHU21623XXSP,2013-02-19 13:23:00,
2013-02-19 07:25:00,49.6,30.1,30.34,NNE,24,2.0,5.0,47,0.00,,,0.00,WUHU21623XXSP,2013-02-19 13:25:00,
2013-02-19 07:26:00,49.6,30.1,30.34,NNE,18,2.0,5.0,47,0.00,,,0.00,WUHU21623XXSP,2013-02-19 13:26:00,
2013-02-19 07:28:00,49.6,30.1,30.34,NNE,22,2.0,5.0,47,0.00,,,0.00,WUHU21623XXSP,2013-02-19 13:28:00,
2013-02-19 07:30:00,49.6,30.1,30.35,NNE,22,2.0,5.0,47,0.00,,,0.00,WUHU21623XXSP,2013-02-19 13:30:00,
2013-02-19 07:32:00,49.6,30.1,30.35,NE,45,3.0,4.0,47,0.00,,,0.00,WUHU21623XXSP,2013-02-19 13:32:00,
2013-02-19 07:33:00,49.6,30.1,30.34,NE,45,3.0,4.0,47,0.00,,,0.00,WUHU21623XXSP,2013-02-19 13:33:00,
2013-02-19 07:35:00,49.6,30.1,30.35,NNE,22,4.0,4.0,47,0.00,,,0.00,WUHU21623XXSP,2013-02-19 13:35:00,
2013-02-19 07:37:00,49.6,30.1,30.35,NNE,30,2.0,4.0,47,0.00,,,0.00,WUHU21623XXSP,2013-02-19 13:37:00,
2013-02-19 07:38:00,49.6,30.1,30.35,NE,45,3.0,4.0,47,0.00,,,0.00,WUHU21623XXSP,2013-02-19 13:38:00,
2013-02-19 07:40:00,49.6,30.1,30.34,NNE,33,3.0,5.0,47,0.00,,,0.00,WUHU21623XXSP,2013-02-19 13:40:00,
2013-02-19 07:41:00,49.6,30.1,30.35,NNE,32,3.0,5.0,47,0.00,,,0.00,WUHU21623XXSP,2013-02-19 13:41:00,
2013-02-19 07:42:00,49.6,30.1,30.35,NNE,22,3.0,5.0,47,0.00,,,0.00,WUHU21623XXSP,2013-02-19 13:42:00,
2013-02-19 07:43:00,49.6,30.1,30.35,NE,36,2.0,5.0,47,0.00,,,0.00,WUHU21623XXSP,2013-02-19 13:43:00,
2013-02-19 07:45:00,49.6,30.1,30.35,NNE,22,3.0,5.0,47,0.00,,,0.00,WUHU21623XXSP,2013-02-19 13:45:00,
2013-02-19 07:46:00,49.6,30.1,30.35,NNE,29,2.0,5.0,47,0.00,,,0.00,WUHU21623XXSP,2013-02-19 13:46:00,
2013-02-19 07:47:00,49.6,30.1,30.35,NE,45,4.0,5.0,47,0.00,,,0.00,WUHU21623XXSP,2013-02-19 13:47:00,
2013-02-19 07:48:00,49.6,30.1,30.35,NE,43,3.0,5.0,47,0.00,,,0.00,WUHU21623XXSP,2013-02-19 13:48:00,
2013-02-19 07:50:00,49.6,30.1,30.36,NNE,26,3.0,4.0,47,0.00,,,0.00,WUHU21623XXSP,2013-02-19 13:50:00,
2013-02-19 07:51:00,49.6,30.1,30.36,NNE,24,3.0,4.0,47,0.00,,,0.00,WUHU21623XXSP,2013-02-19 13:51:00,
2013-02-19 07:53:00,49.6,30.1,30.36,NNE,28,1.0,4.0,47,0.00,,,0.00,WUHU21623XXSP,2013-02-19 13:53:00,
2013-02-19 07:55:00,49.6,30.1,30.37,ENE,67,0.0,4.0,47,0.00,,,0.00,WUHU21623XXSP,2013-02-19 13:55:00,
2013-02-19 07:56:00,49.6,30.1,30.37,ENE,67,0.0,4.0,47,0.00,,,0.00,WUHU21623XXSP,2013-02-19 13:56:00,
2013-02-19 07:58:00,49.6,30.1,30.38,East,90,0.0,4.0,47,0.00,,,0.00,WUHU21623XXSP,2013-02-19 13:58:00,
2013-02-19 08:00:00,49.6,30.1,30.38,NNE,22,0.0,2.0,47,0.00,,,0.00,WUHU21623XXSP,2013-02-19 14:00:00,
2013-02-19 08:01:00,49.6,30.1,30.38,NNE,22,0.0,2.0,47,0.00,,,0.00,WUHU21623XXSP,2013-02-19 14:01:00,
2013-02-19 08:03:00,49.6,29.6,30.38,NW,315,0.0,0.0,46,0.00,,,0.00,WUHU21623XXSP,2013-02-19 14:03:00,
2013-02-19 08:06:00,49.8,29.8,30.38,SW,225,0.0,0.0,46,0.00,,,0.00,WUHU21623XXSP,2013-02-19 14:06:00,
2013-02-19 08:08:00,49.8,29.8,30.39,South,180,0.0,0.0,46,0.00,,,0.00,WUHU21623XXSP,2013-02-19 14:08:00,
2013-02-19 08:09:00,49.8,29.8,30.39,South,180,0.0,0.0,46,0.00,,,0.00,WUHU21623XXSP,2013-02-19 14:09:00,
2013-02-19 08:11:00,49.8,30.3,30.39,SE,135,0.0,0.0,47,0.00,,,0.00,WUHU21623XXSP,2013-02-19 14:11:00,
2013-02-19 08:13:00,49.8,30.3,30.39,ESE,112,2.0,2.0,47,0.00,,,0.00,WUHU21623XXSP,2013-02-19 14:13:00,
2013-02-19 08:14:00,49.8,30.3,30.39,ESE,112,1.0,2.0,47,0.00,,,0.00,WUHU21623XXSP,2013-02-19 14:14:00,
2013-02-19 08:16:00,49.8,30.3,30.39,ESE,112,0.0,2.0,47,0.00,,,0.00,WUHU21623XXSP,2013-02-19 14:16:00,
2013-02-19 08:17:00,49.8,30.3,30.39,ESE,112,0.0,2.0,47,0.00,,,0.00,WUHU21623XXSP,2013-02-19 14:17:00,
2013-02-19 08:18:00,49.8,30.3,30.39,SE,135,0.0,2.0,47,0.00,,,0.00,WUHU21623XXSP,2013-02-19 14:18:00,
2013-02-19 08:19:00,49.8,30.3,30.39,ESE,112,0.0,2.0,47,0.00,,,0.00,WUHU21623XXSP,2013-02-19 14:19:00,
2013-02-19 08:21:00,49.8,30.3,30.39,East,90,0.0,2.0,47,0.00,,,0.00,WUHU21623XXSP,2013-02-19 14:21:00,
2013-02-19 08:22:00,50.0,30.5,30.39,East,90,2.0,2.0,47,0.00,,,0.00,WUHU21623XXSP,2013-02-19 14:22:00,
2013-02-19 08:23:00,50.0,30.5,30.39,NE,45,3.0,3.0,47,0.00,,,0.00,WUHU21623XXSP,2013-02-19 14:23:00,
2013-02-19 08:24:00,50.0,30.5,30.39,NE,45,2.0,3.0,47,0.00,,,0.00,WUHU21623XXSP,2013-02-19 14:24:00,
2013-02-19 08:26:00,50.2,30.7,30.39,ENE,73,2.0,3.0,47,0.00,,,0.00,WUHU21623XXSP,2013-02-19 14:26:00,
2013-02-19 08:27:00,50.2,30.7,30.39,East,83,2.0,3.0,47,0.00,,,0.00,WUHU21623XXSP,2013-02-19 14:27:00,
2013-02-19 08:29:00,50.2,30.7,30.38,ENE,64,3.0,4.0,47,0.00,,,0.00,WUHU21623XXSP,2013-02-19 14:29:00,
2013-02-19 08:31:00,50.2,30.7,30.39,East,90,4.0,4.0,47,0.00,,,0.00,WUHU21623XXSP,2013-02-19 14:31:00,
2013-02-19 08:32:00,50.2,30.7,30.39,ESE,112,3.0,4.0,47,0.00,,,0.00,WUHU21623XXSP,2013-02-19 14:32:00,
2013-02-19 08:34:00,50.4,30.8,30.39,ESE,122,3.0,5.0,47,0.00,,,0.00,WUHU21623XXSP,2013-02-19 14:34:00,
2013-02-19 08:36:00,50.4,30.8,30.39,SE,135,2.0,5.0,47,0.00,,,0.00,WUHU21623XXSP,2013-02-19 14:36:00,
2013-02-19 08:37:00,50.5,31.0,30.39,ENE,67,5.0,5.0,47,0.00,,,0.00,WUHU21623XXSP,2013-02-19 14:37:00,
2013-02-19 08:39:00,50.5,31.0,30.39,East,90,4.0,5.0,47,0.00,,,0.00,WUHU21623XXSP,2013-02-19 14:39:00,
2013-02-19 08:41:00,50.5,31.0,30.40,SE,135,4.0,5.0,47,0.00,,,0.00,WUHU21623XXSP,2013-02-19 14:41:00,
2013-02-19 08:43:00,50.5,31.0,30.40,ENE,67,3.0,5.0,47,0.00,,,0.00,WUHU21623XXSP,2013-02-19 14:43:00,
2013-02-19 08:44:00,50.7,31.2,30.40,East,83,3.0,5.0,47,0.00,,,0.00,WUHU21623XXSP,2013-02-19 14:44:00,
2013-02-19 08:46:00,50.7,31.2,30.39,ENE,75,4.0,6.0,47,0.00,,,0.00,WUHU21623XXSP,2013-02-19 14:46:00,
2013-02-19 08:48:00,50.7,31.2,30.39,ENE,67,5.0,6.0,47,0.00,,,0.00,WUHU21623XXSP,2013-02-19 14:48:00,
2013-02-19 08:49:00,50.7,31.2,30.39,ESE,112,7.0,7.0,47,0.00,,,0.00,WUHU21623XXSP,2013-02-19 14:49:00,
2013-02-19 08:51:00,50.7,31.2,30.39,ESE,112,9.0,11.0,47,0.00,,,0.00,WUHU21623XXSP,2013-02-19 14:51:00,
2013-02-19 08:53:00,50.7,30.6,30.39,ESE,103,8.0,11.0,46,0.00,,,0.00,WUHU21623XXSP,2013-02-19 14:53:00,
2013-02-19 08:54:00,50.9,30.8,30.39,ESE,112,9.0,11.0,46,0.00,,,0.00,WUHU21623XXSP,2013-02-19 14:54:00,
2013-02-19 08:55:00,50.9,30.8,30.39,ESE,115,7.0,11.0,46,0.00,,,0.00,WUHU21623XXSP,2013-02-19 14:55:00,
2013-02-19 08:56:00,50.9,30.8,30.39,ENE,67,7.0,11.0,46,0.00,,,0.00,WUHU21623XXSP,2013-02-19 14:56:00,
2013-02-19 08:58:00,50.9,30.8,30.39,ESE,112,7.0,11.0,46,0.00,,,0.00,WUHU21623XXSP,2013-02-19 14:58:00,
2013-02-19 08:59:00,50.9,30.8,30.39,East,88,6.0,11.0,46,0.00,,,0.00,WUHU21623XXSP,2013-02-19 14:59:00,
2013-02-19 09:00:00,51.1,30.9,30.39,ENE,77,6.0,11.0,46,0.00,,,0.00,WUHU21623XXSP,2013-02-19 15:00:00,
2013-02-19 09:02:00,51.1,30.9,30.39,East,84,6.0,11.0,46,0.00,,,0.00,WUHU21623XXSP,2013-02-19 15:02:00,
2013-02-19 09:03:00,51.1,30.9,30.39,ENE,65,3.0,11.0,46,0.00,,,0.00,WUHU21623XXSP,2013-02-19 15:03:00,
2013-02-19 09:05:00,51.1,30.9,30.39,ENE,67,6.0,12.0,46,0.00,,,0.00,WUHU21623XXSP,2013-02-19 15:05:00,
2013-02-19 09:07:00,51.1,30.9,30.39,ESE,112,9.0,12.0,46,0.00,,,0.00,WUHU21623XXSP,2013-02-19 15:07:00,
2013-02-19 09:08:00,51.3,31.1,30.38,ESE,103,6.0,12.0,46,0.00,,,0.00,WUHU21623XXSP,2013-02-19 15:08:00,
2013-02-19 09:10:00,51.3,31.1,30.38,East,93,6.0,12.0,46,0.00,,,0.00,WUHU21623XXSP,2013-02-19 15:10:00,
2013-02-19 09:12:00,51.3,31.1,30.38,ENE,67,11.0,12.0,46,0.00,,,0.00,WUHU21623XXSP,2013-02-19 15:12:00,
2013-02-19 09:14:00,51.4,31.2,30.39,East,82,9.0,12.0,46,0.00,,,0.00,WUHU21623XXSP,2013-02-19 15:14:00,
2013-02-19 09:15:00,51.4,31.2,30.39,East,80,8.0,12.0,46,0.00,,,0.00,WUHU21623XXSP,2013-02-19 15:15:00,
2013-02-19 09:17:00,51.4,30.7,30.40,East,97,8.0,14.0,45,0.00,,,0.00,WUHU21623XXSP,2013-02-19 15:17:00,
2013-02-19 09:19:00,51.4,30.7,30.40,East,90,10.0,14.0,45,0.00,,,0.00,WUHU21623XXSP,2013-02-19 15:19:00,
2013-02-19 09:20:00,51.4,30.7,30.40,East,84,8.0,14.0,45,0.00,,,0.00,WUHU21623XXSP,2013-02-19 15:20:00,
2013-02-19 09:23:00,51.6,30.8,30.40,ENE,67,8.0,14.0,45,0.00,,,0.00,WUHU21623XXSP,2013-02-19 15:23:00,
2013-02-19 09:24:00,51.6,30.8,30.39,ENE,67,7.0,14.0,45,0.00,,,0.00,WUHU21623XXSP,2013-02-19 15:24:00,
2013-02-19 09:25:00,51.6,30.8,30.39,ENE,77,7.0,14.0,45,0.00,,,0.00,WUHU21623XXSP,2013-02-19 15:25:00,
2013-02-19 09:26:00,51.6,30.8,30.39,ESE,112,7.0,12.0,45,0.00,,,0.00,WUHU21623XXSP,2013-02-19 15:26:00,
2013-02-19 09:28:00,51.6,30.8,30.39,ENE,76,7.0,13.0,45,0.00,,,0.00,WUHU21623XXSP,2013-02-19 15:28:00,
2013-02-19 09:29:00,51.6,30.3,30.39,East,90,8.0,13.0,44,0.00,,,0.00,WUHU21623XXSP,2013-02-19 15:29:00,
2013-02-19 09:30:00,51.6,30.3,30.39,East,83,8.0,13.0,44,0.00,,,0.00,WUHU21623XXSP,2013-02-19 15:30:00,
2013-02-19 09:31:00,51.6,30.3,30.40,East,82,8.0,13.0,44,0.00,,,0.00,WUHU21623XXSP,2013-02-19 15:31:00,
2013-02-19 09:33:00,51.6,30.3,30.40,ENE,60,7.0,13.0,44,0.00,,,0.00,WUHU21623XXSP,2013-02-19 15:33:00,
2013-02-19 09:34:00,51.6,30.3,30.40,NE,56,7.0,13.0,44,0.00,,,0.00,WUHU21623XXSP,2013-02-19 15:34:00,
2013-02-19 09:35:00,51.6,30.3,30.40,ENE,67,11.0,13.0,44,0.00,,,0.00,WUHU21623XXSP,2013-02-19 15:35:00,
2013-02-19 09:36:00,51.8,30.5,30.40,NE,45,13.0,13.0,44,0.00,,,0.00,WUHU21623XXSP,2013-02-19 15:36:00,
2013-02-19 09:39:00,51.6,30.3,30.40,ENE,71,6.0,13.0,44,0.00,,,0.00,WUHU21623XXSP,2013-02-19 15:39:00,
2013-02-19 09:40:00,51.8,30.5,30.40,ENE,67,9.0,13.0,44,0.00,,,0.00,WUHU21623XXSP,2013-02-19 15:40:00,
2013-02-19 09:41:00,51.6,30.3,30.40,ENE,58,8.0,13.0,44,0.00,,,0.00,WUHU21623XXSP,2013-02-19 15:41:00,
2013-02-19 09:44:00,51.8,29.9,30.40,ENE,67,11.0,13.0,43,0.00,,,0.00,WUHU21623XXSP,2013-02-19 15:44:00,
2013-02-19 09:45:00,51.8,29.9,30.40,ENE,64,8.0,13.0,43,0.00,,,0.00,WUHU21623XXSP,2013-02-19 15:45:00,
2013-02-19 09:47:00,51.8,29.9,30.40,ENE,75,7.0,11.0,43,0.00,,,0.00,WUHU21623XXSP,2013-02-19 15:47:00,
2013-02-19 09:49:00,51.6,29.7,30.40,ENE,67,10.0,11.0,43,0.00,,,0.00,WUHU21623XXSP,2013-02-19 15:49:00,
2013-02-19 09:50:00,51.8,29.9,30.40,ENE,73,7.0,11.0,43,0.00,,,0.00,WUHU21623XXSP,2013-02-19 15:50:00,
2013-02-19 09:52:00,51.8,29.9,30.40,ENE,61,6.0,11.0,43,0.00,,,0.00,WUHU21623XXSP,2013-02-19 15:52:00,
2013-02-19 09:54:00,52.0,30.1,30.40,ESE,112,10.0,11.0,43,0.00,,,0.00,WUHU21623XXSP,2013-02-19 15:54:00,
2013-02-19 09:56:00,51.8,29.9,30.40,East,93,7.0,10.0,43,0.00,,,0.00,WUHU21623XXSP,2013-02-19 15:56:00,
2013-02-19 09:57:00,52.0,30.1,30.40,ENE,75,7.0,10.0,43,0.00,,,0.00,WUHU21623XXSP,2013-02-19 15:57:00,
2013-02-19 09:59:00,52.0,30.1,30.41,East,100,8.0,10.0,43,0.00,,,0.00,WUHU21623XXSP,2013-02-19 15:59:00,
2013-02-19 10:01:00,52.0,30.1,30.40,East,94,8.0,10.0,43,0.00,,,0.00,WUHU21623XXSP,2013-02-19 16:01:00,
2013-02-19 10:02:00,52.2,30.2,30.40,East,90,8.0,10.0,43,0.00,,,0.00,WUHU21623XXSP,2013-02-19 16:02:00,
2013-02-19 10:04:00,52.3,30.4,30.40,East,91,8.0,11.0,43,0.00,,,0.00,WUHU21623XXSP,2013-02-19 16:04:00,
2013-02-19 10:06:00,52.3,30.4,30.40,ENE,69,5.0,11.0,43,0.00,,,0.00,WUHU21623XXSP,2013-02-19 16:06:00,
2013-02-19 10:07:00,52.3,30.4,30.41,East,79,4.0,11.0,43,0.00,,,0.00,WUHU21623XXSP,2013-02-19 16:07:00,
2013-02-19 10:10:00,52.5,30.5,30.40,ESE,112,5.0,11.0,43,0.00,,,0.00,WUHU21623XXSP,2013-02-19 16:10:00,
2013-02-19 10:11:00,52.5,30.5,30.40,ENE,67,6.0,11.0,43,0.00,,,0.00,WUHU21623XXSP,2013-02-19 16:11:00,
2013-02-19 10:12:00,52.5,30.5,30.40,East,91,6.0,11.0,43,0.00,,,0.00,WUHU21623XXSP,2013-02-19 16:12:00,
2013-02-19 10:15:00,52.7,30.7,30.40,ENE,67,8.0,10.0,43,0.00,,,0.00,WUHU21623XXSP,2013-02-19 16:15:00,
2013-02-19 10:16:00,52.7,30.7,30.40,ENE,74,7.0,10.0,43,0.00,,,0.00,WUHU21623XXSP,2013-02-19 16:16:00,
2013-02-19 10:18:00,52.9,30.9,30.40,East,90,9.0,10.0,43,0.00,,,0.00,WUHU21623XXSP,2013-02-19 16:18:00,
2013-02-19 10:20:00,52.9,30.9,30.40,East,90,4.0,10.0,43,0.00,,,0.00,WUHU21623XXSP,2013-02-19 16:20:00,
2013-02-19 10:21:00,52.9,30.9,30.40,East,90,7.0,10.0,43,0.00,,,0.00,WUHU21623XXSP,2013-02-19 16:21:00,
2013-02-19 10:23:00,52.9,30.9,30.40,East,90,10.0,10.0,43,0.00,,,0.00,WUHU21623XXSP,2013-02-19 16:23:00,
2013-02-19 10:25:00,52.9,30.9,30.40,ESE,112,7.0,10.0,43,0.00,,,0.00,WUHU21623XXSP,2013-02-19 16:25:00,
2013-02-19 10:27:00,53.1,31.0,30.40,East,90,9.0,11.0,43,0.00,,,0.00,WUHU21623XXSP,2013-02-19 16:27:00,
2013-02-19 10:28:00,53.1,31.0,30.40,East,89,6.0,11.0,43,0.00,,,0.00,WUHU21623XXSP,2013-02-19 16:28:00,
2013-02-19 10:30:00,53.2,31.2,30.40,East,94,8.0,11.0,43,0.00,,,0.00,WUHU21623XXSP,2013-02-19 16:30:00,
2013-02-19 10:32:00,53.2,31.2,30.40,ENE,67,6.0,11.0,43,0.00,,,0.00,WUHU21623XXSP,2013-02-19 16:32:00,
2013-02-19 10:33:00,53.4,31.4,30.40,ENE,67,8.0,11.0,43,0.00,,,0.00,WUHU21623XXSP,2013-02-19 16:33:00,
2013-02-19 10:35:00,53.4,31.4,30.40,East,90,10.0,11.0,43,0.00,,,0.00,WUHU21623XXSP,2013-02-19 16:35:00,
2013-02-19 10:37:00,53.4,31.4,30.39,East,94,8.0,13.0,43,0.00,,,0.00,WUHU21623XXSP,2013-02-19 16:37:00,
2013-02-19 10:38:00,53.4,31.4,30.39,NNE,22,4.0,13.0,43,0.00,,,0.00,WUHU21623XXSP,2013-02-19 16:38:00,
2013-02-19 10:40:00,53.6,31.0,30.39,ENE,67,4.0,13.0,42,0.00,,,0.00,WUHU21623XXSP,2013-02-19 16:40:00,
2013-02-19 10:42:00,53.8,31.1,30.40,NNE,22,5.0,13.0,42,0.00,,,0.00,WUHU21623XXSP,2013-02-19 16:42:00,
2013-02-19 10:43:00,53.8,31.1,30.40,ENE,67,7.0,13.0,42,0.00,,,0.00,WUHU21623XXSP,2013-02-19 16:43:00,
2013-02-19 10:45:00,53.6,30.4,30.40,ENE,60,6.0,13.0,41,0.00,,,0.00,WUHU21623XXSP,2013-02-19 16:45:00,
2013-02-19 10:47:00,53.8,31.1,30.40,ENE,71,7.0,10.0,42,0.00,,,0.00,WUHU21623XXSP,2013-02-19 16:47:00,
2013-02-19 10:48:00,53.8,31.1,30.40,NE,56,6.0,10.0,42,0.00,,,0.00,WUHU21623XXSP,2013-02-19 16:48:00,
2013-02-19 10:50:00,53.8,31.1,30.40,ENE,73,6.0,10.0,42,0.00,,,0.00,WUHU21623XXSP,2013-02-19 16:50:00,
2013-02-19 10:51:00,53.8,31.1,30.40,East,81,5.0,10.0,42,0.00,,,0.00,WUHU21623XXSP,2013-02-19 16:51:00,
2013-02-19 10:52:00,53.8,31.1,30.40,East,90,11.0,11.0,42,0.00,,,0.00,WUHU21623XXSP,2013-02-19 16:52:00,
2013-02-19 10:53:00,53.8,31.1,30.40,ESE,112,11.0,11.0,42,0.00,,,0.00,WUHU21623XXSP,2013-02-19 16:53:00,
2013-02-19 10:55:00,53.8,31.1,30.40,ENE,67,7.0,11.0,42,0.00,,,0.00,WUHU21623XXSP,2013-02-19 16:55:00,
2013-02-19 10:57:00,54.0,31.3,30.40,ENE,58,4.0,11.0,42,0.00,,,0.00,WUHU21623XXSP,2013-02-19 16:57:00,
2013-02-19 10:58:00,54.0,31.3,30.40,NNE,22,5.0,11.0,42,0.00,,,0.00,WUHU21623XXSP,2013-02-19 16:58:00,
2013-02-19 11:00:00,54.1,30.9,30.40,NNE,22,7.0,11.0,41,0.00,,,0.00,WUHU21623XXSP,2013-02-19 17:00:00,
2013-02-19 11:02:00,54.1,30.9,30.40,NNE,25,5.0,11.0,41,0.00,,,0.00,WUHU21623XXSP,2013-02-19 17:02:00,
2013-02-19 11:03:00,54.1,30.9,30.40,NE,45,10.0,11.0,41,0.00,,,0.00,WUHU21623XXSP,2013-02-19 17:03:00,
2013-02-19 11:05:00,54.1,30.9,30.40,NE,50,7.0,10.0,41,0.00,,,0.00,WUHU21623XXSP,2013-02-19 17:05:00,
2013-02-19 11:07:00,54.1,30.9,30.40,ENE,62,6.0,10.0,41,0.00,,,0.00,WUHU21623XXSP,2013-02-19 17:07:00,
2013-02-19 11:08:00,54.1,30.9,30.40,NE,34,6.0,12.0,41,0.00,,,0.00,WUHU21623XXSP,2013-02-19 17:08:00,
2013-02-19 11:10:00,54.1,30.9,30.40,NE,45,7.0,12.0,41,0.00,,,0.00,WUHU21623XXSP,2013-02-19 17:10:00,
2013-02-19 11:12:00,54.1,30.3,30.40,NE,39,6.0,12.0,40,0.00,,,0.00,WUHU21623XXSP,2013-02-19 17:12:00,
2013-02-19 11:13:00,54.1,30.3,30.40,NE,45,9.0,12.0,40,0.00,,,0.00,WUHU21623XXSP,2013-02-19 17:13:00,
2013-02-19 11:14:00,54.3,30.5,30.40,NE,41,5.0,12.0,40,0.00,,,0.00,WUHU21623XXSP,2013-02-19 17:14:00,
2013-02-19 11:15:00,54.3,30.5,30.40,NE,46,7.0,12.0,40,0.00,,,0.00,WUHU21623XXSP,2013-02-19 17:15:00,
2013-02-19 11:17:00,54.3,30.5,30.40,NE,35,7.0,12.0,40,0.00,,,0.00,WUHU21623XXSP,2013-02-19 17:17:00,
2013-02-19 11:18:00,54.3,30.5,30.40,NNE,22,7.0,11.0,40,0.00,,,0.00,WUHU21623XXSP,2013-02-19 17:18:00,
2013-02-19 11:19:00,54.3,30.5,30.40,ENE,67,9.0,11.0,40,0.00,,,0.00,WUHU21623XXSP,2013-02-19 17:19:00,
2013-02-19 11:21:00,54.3,30.5,30.40,NNE,22,10.0,11.0,40,0.00,,,0.00,WUHU21623XXSP,2013-02-19 17:21:00,
2013-02-19 11:22:00,54.3,30.5,30.40,NE,41,8.0,11.0,40,0.00,,,0.00,WUHU21623XXSP,2013-02-19 17:22:00,
2013-02-19 11:23:00,54.3,30.5,30.40,NE,54,6.0,11.0,40,0.00,,,0.00,WUHU21623XXSP,2013-02-19 17:23:00,
2013-02-19 11:24:00,54.5,30.6,30.40,ENE,67,7.0,11.0,40,0.00,,,0.00,WUHU21623XXSP,2013-02-19 17:24:00,
2013-02-19 11:26:00,54.5,30.6,30.40,ENE,67,10.0,11.0,40,0.00,,,0.00,WUHU21623XXSP,2013-02-19 17:26:00,
2013-02-19 11:28:00,54.7,30.8,30.40,ESE,112,10.0,10.0,40,0.00,,,0.00,WUHU21623XXSP,2013-02-19 17:28:00,
2013-02-19 11:29:00,54.7,30.8,30.40,East,81,6.0,10.0,40,0.00,,,0.00,WUHU21623XXSP,2013-02-19 17:29:00,
2013-02-19 11:31:00,54.9,31.0,30.40,East,90,9.0,10.0,40,0.00,,,0.00,WUHU21623XXSP,2013-02-19 17:31:00,
2013-02-19 11:33:00,55.0,31.1,30.40,ENE,70,7.0,10.0,40,0.00,,,0.00,WUHU21623XXSP,2013-02-19 17:33:00,
2013-02-19 11:34:00,55.0,31.1,30.40,NE,45,5.0,10.0,40,0.00,,,0.00,WUHU21623XXSP,2013-02-19 17:34:00,
2013-02-19 11:36:00,55.0,31.1,30.40,NE,48,6.0,10.0,40,0.00,,,0.00,WUHU21623XXSP,2013-02-19 17:36:00,
2013-02-19 11:38:00,55.2,31.3,30.40,East,90,6.0,10.0,40,0.00,,,0.00,WUHU21623XXSP,2013-02-19 17:38:00,
2013-02-19 11:39:00,55.2,31.3,30.40,ENE,69,6.0,10.0,40,0.00,,,0.00,WUHU21623XXSP,2013-02-19 17:39:00,
2013-02-19 11:41:00,55.2,31.3,30.40,ENE,67,8.0,10.0,40,0.00,,,0.00,WUHU21623XXSP,2013-02-19 17:41:00,
2013-02-19 11:43:00,55.2,31.3,30.40,NNE,22,9.0,11.0,40,0.00,,,0.00,WUHU21623XXSP,2013-02-19 17:43:00,
2013-02-19 11:44:00,55.4,31.5,30.40,ENE,71,7.0,11.0,40,0.00,,,0.00,WUHU21623XXSP,2013-02-19 17:44:00,
2013-02-19 11:46:00,55.6,31.6,30.40,ENE,67,11.0,11.0,40,0.00,,,0.00,WUHU21623XXSP,2013-02-19 17:46:00,
2013-02-19 11:48:00,55.6,31.6,30.40,East,91,8.0,11.0,40,0.00,,,0.00,WUHU21623XXSP,2013-02-19 17:48:00,
2013-02-19 11:49:00,55.8,31.8,30.40,East,90,8.0,11.0,40,0.00,,,0.00,WUHU21623XXSP,2013-02-19 17:49:00,
2013-02-19 11:50:00,55.8,31.8,30.40,East,90,7.0,11.0,40,0.00,,,0.00,WUHU21623XXSP,2013-02-19 17:50:00,
2013-02-19 11:51:00,55.8,31.8,30.40,NE,53,8.0,12.0,40,0.00,,,0.00,WUHU21623XXSP,2013-02-19 17:51:00,
2013-02-19 11:53:00,55.9,31.9,30.40,ENE,63,5.0,12.0,40,0.00,,,0.00,WUHU21623XXSP,2013-02-19 17:53:00,
2013-02-19 11:54:00,55.9,31.9,30.39,ENE,67,7.0,12.0,40,0.00,,,0.00,WUHU21623XXSP,2013-02-19 17:54:00,
2013-02-19 11:55:00,55.9,31.9,30.39,ESE,112,6.0,12.0,40,0.00,,,0.00,WUHU21623XXSP,2013-02-19 17:55:00,
2013-02-19 11:56:00,56.1,32.1,30.39,NE,45,7.0,12.0,40,0.00,,,0.00,WUHU21623XXSP,2013-02-19 17:56:00,
2013-02-19 11:58:00,56.1,32.1,30.39,ENE,65,6.0,12.0,40,0.00,,,0.00,WUHU21623XXSP,2013-02-19 17:58:00,
2013-02-19 11:59:00,56.3,31.6,30.39,ENE,65,5.0,12.0,39,0.00,,,0.00,WUHU21623XXSP,2013-02-19 17:59:00,
2013-02-19 12:00:00,56.3,31.6,30.39,NE,45,4.0,12.0,39,0.00,,,0.00,WUHU21623XXSP,2013-02-19 18:00:00,
2013-02-19 12:02:00,56.3,31.6,30.39,ENE,67,7.0,9.0,39,0.00,,,0.00,WUHU21623XXSP,2013-02-19 18:02:00,
2013-02-19 12:03:00,56.5,31.7,30.39,ESE,112,11.0,11.0,39,0.00,,,0.00,WUHU21623XXSP,2013-02-19 18:03:00,
2013-02-19 12:04:00,56.5,31.7,30.39,ESE,105,9.0,12.0,39,0.00,,,0.00,WUHU21623XXSP,2013-02-19 18:04:00,
2013-02-19 12:05:00,56.5,31.7,30.38,East,90,11.0,12.0,39,0.00,,,0.00,WUHU21623XXSP,2013-02-19 18:05:00,
2013-02-19 12:07:00,56.5,31.7,30.39,East,89,9.0,12.0,39,0.00,,,0.00,WUHU21623XXSP,2013-02-19 18:07:00,
2013-02-19 12:08:00,56.7,31.9,30.39,ENE,67,11.0,15.0,39,0.00,,,0.00,WUHU21623XXSP,2013-02-19 18:08:00,
2013-02-19 12:09:00,56.8,32.1,30.39,NE,45,15.0,15.0,39,0.00,,,0.00,WUHU21623XXSP,2013-02-19 18:09:00,
2013-02-19 12:10:00,56.8,32.1,30.39,NE,51,9.0,15.0,39,0.00,,,0.00,WUHU21623XXSP,2013-02-19 18:10:00,
2013-02-19 12:12:00,56.8,32.1,30.39,East,90,9.0,15.0,39,0.00,,,0.00,WUHU21623XXSP,2013-02-19 18:12:00,
2013-02-19 12:14:00,56.8,32.1,30.38,SE,135,10.0,15.0,39,0.00,,,0.00,WUHU21623XXSP,2013-02-19 18:14:00,
2013-02-19 12:15:00,57.0,32.2,30.38,East,100,7.0,15.0,39,0.00,,,0.00,WUHU21623XXSP,2013-02-19 18:15:00,
2013-02-19 12:17:00,57.0,32.2,30.38,East,89,9.0,15.0,39,0.00,,,0.00,WUHU21623XXSP,2013-02-19 18:17:00,
2013-02-19 12:19:00,57.0,32.2,30.38,East,84,8.0,15.0,39,0.00,,,0.00,WUHU21623XXSP,2013-02-19 18:19:00,
2013-02-19 12:20:00,57.2,32.4,30.38,East,82,7.0,13.0,39,0.00,,,0.00,WUHU21623XXSP,2013-02-19 18:20:00,
2013-02-19 12:22:00,57.4,32.5,30.38,ENE,69,10.0,13.0,39,0.00,,,0.00,WUHU21623XXSP,2013-02-19 18:22:00,
2013-02-19 12:24:00,57.4,32.5,30.38,ENE,66,8.0,13.0,39,0.00,,,0.00,WUHU21623XXSP,2013-02-19 18:24:00,
2013-02-19 12:25:00,57.6,32.7,30.38,ENE,60,7.0,13.0,39,0.00,,,0.00,WUHU21623XXSP,2013-02-19 18:25:00,
2013-02-19 12:27:00,57.6,32.0,30.38,ENE,63,6.0,13.0,38,0.00,,,0.00,WUHU21623XXSP,2013-02-19 18:27:00,
2013-02-19 12:29:00,57.6,31.3,30.38,NE,45,10.0,13.0,37,0.00,,,0.00,WUHU21623XXSP,2013-02-19 18:29:00,
2013-02-19 12:30:00,57.6,30.6,30.38,NE,47,8.0,13.0,36,0.00,,,0.00,WUHU21623XXSP,2013-02-19 18:30:00,
2013-02-19 12:32:00,57.6,31.3,30.38,ENE,69,7.0,12.0,37,0.00,,,0.00,WUHU21623XXSP,2013-02-19 18:32:00,
2013-02-19 12:34:00,57.6,31.3,30.38,ENE,67,9.0,12.0,37,0.00,,,0.00,WUHU21623XXSP,2013-02-19 18:34:00,
2013-02-19 12:35:00,57.6,31.3,30.38,East,90,8.0,12.0,37,0.00,,,0.00,WUHU21623XXSP,2013-02-19 18:35:00,
2013-02-19 12:36:00,57.4,31.1,30.38,ENE,67,9.0,12.0,37,0.00,,,0.00,WUHU21623XXSP,2013-02-19 18:36:00,
2013-02-19 12:37:00,57.4,31.1,30.38,NE,56,9.0,13.0,37,0.00,,,0.00,WUHU21623XXSP,2013-02-19 18:37:00,
2013-02-19 12:39:00,57.6,31.3,30.38,NE,53,6.0,13.0,37,0.00,,,0.00,WUHU21623XXSP,2013-02-19 18:39:00,
2013-02-19 12:41:00,57.7,31.5,30.37,NNE,33,4.0,13.0,37,0.00,,,0.00,WUHU21623XXSP,2013-02-19 18:41:00,
2013-02-19 12:42:00,57.7,31.5,30.37,ENE,57,5.0,13.0,37,0.00,,,0.00,WUHU21623XXSP,2013-02-19 18:42:00,
2013-02-19 12:45:00,57.7,30.8,30.37,NE,40,6.0,13.0,36,0.00,,,0.00,WUHU21623XXSP,2013-02-19 18:45:00,
2013-02-19 12:46:00,57.7,30.8,30.37,NE,45,7.0,13.0,36,0.00,,,0.00,WUHU21623XXSP,2013-02-19 18:46:00,
2013-02-19 12:47:00,57.9,30.9,30.37,NE,53,4.0,10.0,36,0.00,,,0.00,WUHU21623XXSP,2013-02-19 18:47:00,
2013-02-19 12:50:00,57.9,30.9,30.36,NE,45,7.0,10.0,36,0.00,,,0.00,WUHU21623XXSP,2013-02-19 18:50:00,
2013-02-19 12:51:00,57.9,30.9,30.36,NE,45,6.0,10.0,36,0.00,,,0.00,WUHU21623XXSP,2013-02-19 18:51:00,
2013-02-19 12:53:00,57.9,30.9,30.36,NE,40,7.0,12.0,36,0.00,,,0.00,WUHU21623XXSP,2013-02-19 18:53:00,
2013-02-19 12:55:00,57.9,30.9,30.36,NE,45,11.0,12.0,36,0.00,,,0.00,WUHU21623XXSP,2013-02-19 18:55:00,
2013-02-19 12:56:00,57.9,30.9,30.35,NNE,22,9.0,12.0,36,0.00,,,0.00,WUHU21623XXSP,2013-02-19 18:56:00,
2013-02-19 12:58:00,57.9,30.9,30.35,ENE,72,5.0,12.0,36,0.00,,,0.00,WUHU21623XXSP,2013-02-19 18:58:00,
2013-02-19 13:00:00,58.1,31.1,30.35,East,90,10.0,12.0,36,0.00,,,0.00,WUHU21623XXSP,2013-02-19 19:00:00,
2013-02-19 13:01:00,58.3,31.2,30.35,East,90,10.0,13.0,36,0.00,,,0.00,WUHU21623XXSP,2013-02-19 19:01:00,
2013-02-19 13:03:00,58.3,31.9,30.35,ESE,112,10.0,13.0,37,0.00,,,0.00,WUHU21623XXSP,2013-02-19 19:03:00,
2013-02-19 13:05:00,58.6,32.3,30.35,NE,43,5.0,13.0,37,0.00,,,0.00,WUHU21623XXSP,2013-02-19 19:05:00,
2013-02-19 13:06:00,58.6,31.6,30.35,ENE,67,10.0,13.0,36,0.00,,,0.00,WUHU21623XXSP,2013-02-19 19:06:00,
2013-02-19 13:07:00,58.6,31.6,30.35,NNE,22,12.0,13.0,36,0.00,,,0.00,WUHU21623XXSP,2013-02-19 19:07:00,
2013-02-19 13:08:00,58.6,31.6,30.35,NE,45,11.0,13.0,36,0.00,,,0.00,WUHU21623XXSP,2013-02-19 19:08:00,
2013-02-19 13:10:00,58.8,31.7,30.35,North,0,10.0,13.0,36,0.00,,,0.00,WUHU21623XXSP,2013-02-19 19:10:00,
2013-02-19 13:12:00,58.8,31.7,30.35,NNE,22,8.0,12.0,36,0.00,,,0.00,WUHU21623XXSP,2013-02-19 19:12:00,
2013-02-19 13:13:00,58.8,31.7,30.35,NE,43,8.0,12.0,36,0.00,,,0.00,WUHU21623XXSP,2013-02-19 19:13:00,
2013-02-19 13:15:00,58.8,31.0,30.34,NE,41,8.0,13.0,35,0.00,,,0.00,WUHU21623XXSP,2013-02-19 19:15:00,
2013-02-19 13:17:00,58.8,31.0,30.34,NNE,22,9.0,13.0,35,0.00,,,0.00,WUHU21623XXSP,2013-02-19 19:17:00,
2013-02-19 13:18:00,58.8,31.0,30.34,NE,34,8.0,13.0,35,0.00,,,0.00,WUHU21623XXSP,2013-02-19 19:18:00,
2013-02-19 13:20:00,58.8,31.0,30.34,NNE,29,5.0,13.0,35,0.00,,,0.00,WUHU21623XXSP,2013-02-19 19:20:00,
2013-02-19 13:22:00,58.8,30.3,30.34,East,90,7.0,13.0,34,0.00,,,0.00,WUHU21623XXSP,2013-02-19 19:22:00,
2013-02-19 13:23:00,58.8,30.3,30.34,ESE,112,10.0,13.0,34,0.00,,,0.00,WUHU21623XXSP,2013-02-19 19:23:00,
2013-02-19 13:26:00,58.8,31.0,30.35,East,89,8.0,11.0,35,0.00,,,0.00,WUHU21623XXSP,2013-02-19 19:26:00,
2013-02-19 13:27:00,58.8,31.0,30.35,SE,135,6.0,10.0,35,0.00,,,0.00,WUHU21623XXSP,2013-02-19 19:27:00,
2013-02-19 13:28:00,58.8,31.7,30.34,ESE,106,5.0,10.0,36,0.00,,,0.00,WUHU21623XXSP,2013-02-19 19:28:00,
2013-02-19 13:31:00,59.0,31.9,30.34,NNE,25,2.0,10.0,36,0.00,,,0.00,WUHU21623XXSP,2013-02-19 19:31:00,
2013-02-19 13:32:00,59.2,32.0,30.35,NE,40,3.0,10.0,36,0.00,,,0.00,WUHU21623XXSP,2013-02-19 19:32:00,
2013-02-19 13:33:00,59.2,31.3,30.35,NE,36,5.0,10.0,35,0.00,,,0.00,WUHU21623XXSP,2013-02-19 19:33:00,
2013-02-19 13:36:00,59.2,31.3,30.34,NE,48,9.0,11.0,35,0.00,,,0.00,WUHU21623XXSP,2013-02-19 19:36:00,
2013-02-19 13:37:00,59.4,31.5,30.34,NE,36,8.0,11.0,35,0.00,,,0.00,WUHU21623XXSP,2013-02-19 19:37:00,
2013-02-19 13:38:00,59.4,31.5,30.34,North,0,9.0,11.0,35,0.00,,,0.00,WUHU21623XXSP,2013-02-19 19:38:00,
2013-02-19 13:41:00,59.2,30.6,30.33,NE,45,8.0,11.0,34,0.00,,,0.00,WUHU21623XXSP,2013-02-19 19:41:00,
2013-02-19 13:43:00,59.2,30.6,30.33,NE,51,7.0,11.0,34,0.00,,,0.00,WUHU21623XXSP,2013-02-19 19:43:00,
2013-02-19 13:44:00,59.2,30.6,30.33,NE,45,12.0,12.0,34,0.00,,,0.00,WUHU21623XXSP,2013-02-19 19:44:00,
2013-02-19 13:47:00,59.4,30.8,30.33,NE,39,7.0,12.0,34,0.00,,,0.00,WUHU21623XXSP,2013-02-19 19:47:00,
2013-02-19 13:48:00,59.2,30.6,30.33,NE,45,6.0,12.0,34,0.00,,,0.00,WUHU21623XXSP,2013-02-19 19:48:00,
2013-02-19 13:49:00,59.4,30.8,30.33,NE,45,7.0,12.0,34,0.00,,,0.00,WUHU21623XXSP,2013-02-19 19:49:00,
2013-02-19 13:52:00,59.5,31.6,30.33,ENE,67,6.0,12.0,35,0.00,,,0.00,WUHU21623XXSP,2013-02-19 19:52:00,
2013-02-19 13:53:00,59.5,31.6,30.33,ENE,64,8.0,12.0,35,0.00,,,0.00,WUHU21623XXSP,2013-02-19 19:53:00,
2013-02-19 13:54:00,59.5,31.6,30.32,ENE,67,8.0,12.0,35,0.00,,,0.00,WUHU21623XXSP,2013-02-19 19:54:00,
2013-02-19 13:57:00,59.7,31.8,30.32,ENE,71,7.0,12.0,35,0.00,,,0.00,WUHU21623XXSP,2013-02-19 19:57:00,
2013-02-19 13:58:00,59.9,32.0,30.32,ENE,70,7.0,12.0,35,0.00,,,0.00,WUHU21623XXSP,2013-02-19 19:58:00,
2013-02-19 13:59:00,59.9,31.9,30.32,SE,135,10.0,12.0,35,0.00,,,0.00,WUHU21623XXSP,2013-02-19 19:59:00,
2013-02-19 14:02:00,60.1,32.1,30.32,East,93,8.0,12.0,35,0.00,,,0.00,WUHU21623XXSP,2013-02-19 20:02:00,
2013-02-19 14:03:00,60.1,32.1,30.32,ENE,72,7.0,11.0,35,0.00,,,0.00,WUHU21623XXSP,2013-02-19 20:03:00,
2013-02-19 14:04:00,60.1,32.1,30.32,East,90,7.0,11.0,35,0.00,,,0.00,WUHU21623XXSP,2013-02-19 20:04:00,
2013-02-19 14:07:00,60.1,32.1,30.31,East,90,10.0,11.0,35,0.00,,,0.00,WUHU21623XXSP,2013-02-19 20:07:00,
2013-02-19 14:08:00,60.4,32.4,30.31,ENE,67,12.0,12.0,35,0.00,,,0.00,WUHU21623XXSP,2013-02-19 20:08:00,
2013-02-19 14:09:00,60.4,32.4,30.31,ENE,71,10.0,12.0,35,0.00,,,0.00,WUHU21623XXSP,2013-02-19 20:09:00,
2013-02-19 14:12:00,60.4,32.4,30.31,ENE,67,10.0,12.0,35,0.00,,,0.00,WUHU21623XXSP,2013-02-19 20:12:00,
2013-02-19 14:13:00,60.4,32.4,30.30,NNE,22,12.0,12.0,35,0.00,,,0.00,WUHU21623XXSP,2013-02-19 20:13:00,
2013-02-19 14:14:00,60.6,32.6,30.30,East,90,9.0,12.0,35,0.00,,,0.00,WUHU21623XXSP,2013-02-19 20:14:00,
2013-02-19 14:17:00,60.6,32.6,30.30,East,90,9.0,12.0,35,0.00,,,0.00,WUHU21623XXSP,2013-02-19 20:17:00,
2013-02-19 14:18:00,60.6,32.6,30.31,ENE,67,12.0,15.0,35,0.00,,,0.00,WUHU21623XXSP,2013-02-19 20:18:00,
2013-02-19 14:19:00,60.6,32.6,30.31,ENE,75,9.0,15.0,35,0.00,,,0.00,WUHU21623XXSP,2013-02-19 20:19:00,
2013-02-19 14:20:00,60.6,32.6,30.31,ENE,77,8.0,15.0,35,0.00,,,0.00,WUHU21623XXSP,2013-02-19 20:20:00,
2013-02-19 14:22:00,60.6,32.6,30.31,East,93,6.0,15.0,35,0.00,,,0.00,WUHU21623XXSP,2013-02-19 20:22:00,
2013-02-19 14:24:00,60.8,32.7,30.31,ENE,77,5.0,15.0,35,0.00,,,0.00,WUHU21623XXSP,2013-02-19 20:24:00,
2013-02-19 14:25:00,61.0,32.9,30.31,NE,45,11.0,15.0,35,0.00,,,0.00,WUHU21623XXSP,2013-02-19 20:25:00,
2013-02-19 14:28:00,61.0,32.9,30.31,ENE,63,7.0,13.0,35,0.00,,,0.00,WUHU21623XXSP,2013-02-19 20:28:00,
2013-02-19 14:29:00,61.0,32.9,30.30,NE,45,6.0,12.0,35,0.00,,,0.00,WUHU21623XXSP,2013-02-19 20:29:00,
2013-02-19 14:30:00,61.0,32.9,30.31,NE,45,8.0,12.0,35,0.00,,,0.00,WUHU21623XXSP,2013-02-19 20:30:00,
2013-02-19 14:33:00,61.0,32.2,30.30,NNE,22,10.0,11.0,34,0.00,,,0.00,WUHU21623XXSP,2013-02-19 20:33:00,
2013-02-19 14:34:00,61.0,32.2,30.30,ENE,67,10.0,11.0,34,0.00,,,0.00,WUHU21623XXSP,2013-02-19 20:34:00,
2013-02-19 14:35:00,61.0,32.2,30.30,NE,45,11.0,11.0,34,0.00,,,0.00,WUHU21623XXSP,2013-02-19 20:35:00,
2013-02-19 14:38:00,61.0,32.2,30.30,NE,53,9.0,12.0,34,0.00,,,0.00,WUHU21623XXSP,2013-02-19 20:38:00,
2013-02-19 14:39:00,61.0,32.2,30.30,NE,42,7.0,12.0,34,0.00,,,0.00,WUHU21623XXSP,2013-02-19 20:39:00,
2013-02-19 14:40:00,61.2,32.3,30.30,NNE,22,10.0,12.0,34,0.00,,,0.00,WUHU21623XXSP,2013-02-19 20:40:00,
2013-02-19 14:44:00,61.0,32.2,30.30,NE,45,11.0,12.0,34,0.00,,,0.00,WUHU21623XXSP,2013-02-19 20:44:00,
2013-02-19 14:45:00,61.0,32.2,30.30,NNE,22,11.0,12.0,34,0.00,,,0.00,WUHU21623XXSP,2013-02-19 20:45:00,
2013-02-19 14:49:00,61.0,32.2,30.30,NE,45,7.0,11.0,34,0.00,,,0.00,WUHU21623XXSP,2013-02-19 20:49:00,
2013-02-19 14:50:00,61.0,32.2,30.29,NE,40,5.0,11.0,34,0.00,,,0.00,WUHU21623XXSP,2013-02-19 20:50:00,
2013-02-19 14:51:00,61.0,32.2,30.30,ENE,77,5.0,11.0,34,0.00,,,0.00,WUHU21623XXSP,2013-02-19 20:51:00,
2013-02-19 14:54:00,61.0,32.2,30.30,East,79,6.0,11.0,34,0.00,,,0.00,WUHU21623XXSP,2013-02-19 20:54:00,
2013-02-19 14:55:00,61.2,32.3,30.30,ENE,67,6.0,10.0,34,0.00,,,0.00,WUHU21623XXSP,2013-02-19 20:55:00,
2013-02-19 14:56:00,61.2,32.3,30.29,NE,45,5.0,10.0,34,0.00,,,0.00,WUHU21623XXSP,2013-02-19 20:56:00,
2013-02-19 14:59:00,61.2,32.3,30.28,NE,45,8.0,9.0,34,0.00,,,0.00,WUHU21623XXSP,2013-02-19 20:59:00,
2013-02-19 15:00:00,61.3,32.5,30.28,ENE,67,9.0,9.0,34,0.00,,,0.00,WUHU21623XXSP,2013-02-19 21:00:00,
2013-02-19 15:01:00,61.3,32.5,30.28,ENE,67,6.0,9.0,34,0.00,,,0.00,WUHU21623XXSP,2013-02-19 21:01:00,
2013-02-19 15:04:00,61.5,32.6,30.28,NE,54,6.0,10.0,34,0.00,,,0.00,WUHU21623XXSP,2013-02-19 21:04:00,
2013-02-19 15:05:00,61.5,32.6,30.28,NE,45,7.0,10.0,34,0.00,,,0.00,WUHU21623XXSP,2013-02-19 21:05:00,
2013-02-19 15:06:00,61.5,32.6,30.28,NE,49,5.0,10.0,34,0.00,,,0.00,WUHU21623XXSP,2013-02-19 21:06:00,
2013-02-19 15:09:00,61.5,32.6,30.28,NNE,22,13.0,13.0,34,0.00,,,0.00,WUHU21623XXSP,2013-02-19 21:09:00,
2013-02-19 15:10:00,61.7,32.8,30.28,NE,37,7.0,13.0,34,0.00,,,0.00,WUHU21623XXSP,2013-02-19 21:10:00,
2013-02-19 15:12:00,61.7,32.8,30.28,NE,46,5.0,13.0,34,0.00,,,0.00,WUHU21623XXSP,2013-02-19 21:12:00,
2013-02-19 15:14:00,61.7,32.8,30.28,NE,45,8.0,13.0,34,0.00,,,0.00,WUHU21623XXSP,2013-02-19 21:14:00,
2013-02-19 15:15:00,61.7,32.8,30.28,ENE,71,8.0,13.0,34,0.00,,,0.00,WUHU21623XXSP,2013-02-19 21:15:00,
2013-02-19 15:17:00,61.7,32.8,30.28,ESE,112,11.0,13.0,34,0.00,,,0.00,WUHU21623XXSP,2013-02-19 21:17:00,
2013-02-19 15:19:00,61.9,33.0,30.28,ESE,112,10.0,12.0,34,0.00,,,0.00,WUHU21623XXSP,2013-02-19 21:19:00,
2013-02-19 15:20:00,61.9,33.0,30.28,East,96,9.0,12.0,34,0.00,,,0.00,WUHU21623XXSP,2013-02-19 21:20:00,
2013-02-19 15:22:00,61.9,33.0,30.28,ESE,112,7.0,12.0,34,0.00,,,0.00,WUHU21623XXSP,2013-02-19 21:22:00,
2013-02-19 15:24:00,62.1,33.1,30.28,ESE,112,7.0,12.0,34,0.00,,,0.00,WUHU21623XXSP,2013-02-19 21:24:00,
2013-02-19 15:25:00,62.1,33.1,30.28,ESE,112,8.0,12.0,34,0.00,,,0.00,WUHU21623XXSP,2013-02-19 21:25:00,
2013-02-19 15:27:00,62.2,33.3,30.27,East,95,8.0,15.0,34,0.00,,,0.00,WUHU21623XXSP,2013-02-19 21:27:00,
2013-02-19 15:29:00,62.2,33.3,30.27,East,101,11.0,15.0,34,0.00,,,0.00,WUHU21623XXSP,2013-02-19 21:29:00,
2013-02-19 15:30:00,62.2,33.3,30.27,East,91,9.0,15.0,34,0.00,,,0.00,WUHU21623XXSP,2013-02-19 21:30:00,
2013-02-19 15:32:00,62.4,33.5,30.27,ESE,103,9.0,15.0,34,0.00,,,0.00,WUHU21623XXSP,2013-02-19 21:32:00,
2013-02-19 15:34:00,62.4,33.5,30.27,East,86,7.0,15.0,34,0.00,,,0.00,WUHU21623XXSP,2013-02-19 21:34:00,
2013-02-19 15:35:00,62.4,33.5,30.27,East,85,7.0,13.0,34,0.00,,,0.00,WUHU21623XXSP,2013-02-19 21:35:00,
2013-02-19 15:37:00,62.4,33.5,30.27,ENE,67,9.0,13.0,34,0.00,,,0.00,WUHU21623XXSP,2013-02-19 21:37:00,
2013-02-19 15:39:00,62.4,33.5,30.27,ENE,71,7.0,12.0,34,0.00,,,0.00,WUHU21623XXSP,2013-02-19 21:39:00,
2013-02-19 15:40:00,62.6,33.6,30.27,ENE,69,7.0,12.0,34,0.00,,,0.00,WUHU21623XXSP,2013-02-19 21:40:00,
2013-02-19 15:43:00,62.4,33.5,30.26,ENE,58,7.0,12.0,34,0.00,,,0.00,WUHU21623XXSP,2013-02-19 21:43:00,
2013-02-19 15:44:00,62.4,33.5,30.26,East,96,8.0,12.0,34,0.00,,,0.00,WUHU21623XXSP,2013-02-19 21:44:00,
2013-02-19 15:45:00,62.4,33.5,30.26,ESE,104,9.0,12.0,34,0.00,,,0.00,WUHU21623XXSP,2013-02-19 21:45:00,
2013-02-19 15:48:00,62.4,33.5,30.26,East,90,10.0,13.0,34,0.00,,,0.00,WUHU21623XXSP,2013-02-19 21:48:00,
2013-02-19 15:50:00,62.4,33.5,30.26,East,90,6.0,13.0,34,0.00,,,0.00,WUHU21623XXSP,2013-02-19 21:50:00,
2013-02-19 15:51:00,62.4,33.5,30.26,ENE,67,9.0,13.0,34,0.00,,,0.00,WUHU21623XXSP,2013-02-19 21:51:00,
2013-02-19 15:53:00,62.6,33.6,30.26,NE,45,11.0,17.0,34,0.00,,,0.00,WUHU21623XXSP,2013-02-19 21:53:00,
2013-02-19 15:55:00,62.6,33.6,30.26,ENE,68,10.0,17.0,34,0.00,,,0.00,WUHU21623XXSP,2013-02-19 21:55:00,
2013-02-19 15:56:00,62.6,33.6,30.26,ENE,58,9.0,17.0,34,0.00,,,0.00,WUHU21623XXSP,2013-02-19 21:56:00,
2013-02-19 15:58:00,62.6,33.6,30.26,ENE,63,8.0,17.0,34,0.00,,,0.00,WUHU21623XXSP,2013-02-19 21:58:00,
2013-02-19 16:00:00,62.6,33.6,30.26,ENE,67,7.0,17.0,34,0.00,,,0.00,WUHU21623XXSP,2013-02-19 22:00:00,
2013-02-19 16:01:00,62.6,33.6,30.26,East,90,8.0,17.0,34,0.00,,,0.00,WUHU21623XXSP,2013-02-19 22:01:00,
2013-02-19 16:04:00,62.6,32.9,30.26,East,84,10.0,13.0,33,0.00,,,0.00,WUHU21623XXSP,2013-02-19 22:04:00,
2013-02-19 16:05:00,62.8,33.8,30.25,East,100,9.0,13.0,34,0.00,,,0.00,WUHU21623XXSP,2013-02-19 22:05:00,
2013-02-19 16:06:00,62.8,33.8,30.25,ENE,61,7.0,13.0,34,0.00,,,0.00,WUHU21623XXSP,2013-02-19 22:06:00,
2013-02-19 16:09:00,62.8,33.8,30.25,ENE,67,8.0,13.0,34,0.00,,,0.00,WUHU21623XXSP,2013-02-19 22:09:00,
2013-02-19 16:10:00,62.8,33.8,30.25,ENE,60,8.0,13.0,34,0.00,,,0.00,WUHU21623XXSP,2013-02-19 22:10:00,
2013-02-19 16:11:00,62.8,33.8,30.25,ENE,67,11.0,13.0,34,0.00,,,0.00,WUHU21623XXSP,2013-02-19 22:11:00,
2013-02-19 16:14:00,62.8,33.8,30.25,East,90,11.0,13.0,34,0.00,,,0.00,WUHU21623XXSP,2013-02-19 22:14:00,
2013-02-19 16:15:00,62.8,33.8,30.25,ESE,112,11.0,13.0,34,0.00,,,0.00,WUHU21623XXSP,2013-02-19 22:15:00,
2013-02-19 16:16:00,62.8,33.8,30.25,ESE,112,12.0,13.0,34,0.00,,,0.00,WUHU21623XXSP,2013-02-19 22:16:00,
2013-02-19 16:19:00,63.0,33.9,30.25,ESE,103,8.0,13.0,34,0.00,,,0.00,WUHU21623XXSP,2013-02-19 22:19:00,
2013-02-19 16:20:00,63.0,33.9,30.25,ENE,67,8.0,13.0,34,0.00,,,0.00,WUHU21623XXSP,2013-02-19 22:20:00,
2013-02-19 16:21:00,63.1,34.1,30.25,ENE,65,8.0,12.0,34,0.00,,,0.00,WUHU21623XXSP,2013-02-19 22:21:00,
2013-02-19 16:22:00,63.1,34.1,30.25,ENE,62,7.0,12.0,34,0.00,,,0.00,WUHU21623XXSP,2013-02-19 22:22:00,
2013-02-19 16:24:00,63.0,34.1,30.25,East,81,8.0,12.0,34,0.00,,,0.00,WUHU21623XXSP,2013-02-19 22:24:00,
2013-02-19 16:25:00,63.1,34.1,30.26,East,97,8.0,12.0,34,0.00,,,0.00,WUHU21623XXSP,2013-02-19 22:25:00,
2013-02-19 16:26:00,63.1,34.1,30.25,East,82,8.0,11.0,34,0.00,,,0.00,WUHU21623XXSP,2013-02-19 22:26:00,
2013-02-19 16:27:00,63.1,34.1,30.25,ENE,71,7.0,11.0,34,0.00,,,0.00,WUHU21623XXSP,2013-02-19 22:27:00,
2013-02-19 16:29:00,63.1,34.1,30.25,East,81,3.0,11.0,34,0.00,,,0.00,WUHU21623XXSP,2013-02-19 22:29:00,
2013-02-19 16:30:00,63.1,34.1,30.25,East,90,13.0,13.0,34,0.00,,,0.00,WUHU21623XXSP,2013-02-19 22:30:00,
2013-02-19 16:31:00,63.1,34.1,30.25,East,86,10.0,14.0,34,0.00,,,0.00,WUHU21623XXSP,2013-02-19 22:31:00,
2013-02-19 16:32:00,63.1,34.1,30.25,East,90,10.0,14.0,34,0.00,,,0.00,WUHU21623XXSP,2013-02-19 22:32:00,
2013-02-19 16:34:00,63.1,34.1,30.26,East,84,7.0,14.0,34,0.00,,,0.00,WUHU21623XXSP,2013-02-19 22:34:00,
2013-02-19 16:35:00,63.1,34.1,30.25,East,80,7.0,14.0,34,0.00,,,0.00,WUHU21623XXSP,2013-02-19 22:35:00,
2013-02-19 16:37:00,63.3,34.3,30.25,ENE,67,9.0,14.0,34,0.00,,,0.00,WUHU21623XXSP,2013-02-19 22:37:00,
2013-02-19 16:39:00,63.3,34.3,30.25,East,81,7.0,14.0,34,0.00,,,0.00,WUHU21623XXSP,2013-02-19 22:39:00,
2013-02-19 16:40:00,63.3,34.3,30.25,East,90,9.0,11.0,34,0.00,,,0.00,WUHU21623XXSP,2013-02-19 22:40:00,
2013-02-19 16:42:00,63.3,34.3,30.25,East,94,8.0,11.0,34,0.00,,,0.00,WUHU21623XXSP,2013-02-19 22:42:00,
2013-02-19 16:45:00,63.3,34.3,30.24,East,90,10.0,15.0,34,0.00,,,0.00,WUHU21623XXSP,2013-02-19 22:45:00,
2013-02-19 16:47:00,63.3,34.3,30.24,East,101,9.0,15.0,34,0.00,,,0.00,WUHU21623XXSP,2013-02-19 22:47:00,
2013-02-19 16:50:00,63.3,34.3,30.25,East,85,7.0,15.0,34,0.00,,,0.00,WUHU21623XXSP,2013-02-19 22:50:00,
2013-02-19 16:51:00,63.3,34.3,30.24,East,90,5.0,15.0,34,0.00,,,0.00,WUHU21623XXSP,2013-02-19 22:51:00,
2013-02-19 16:52:00,63.3,34.3,30.25,ENE,67,9.0,15.0,34,0.00,,,0.00,WUHU21623XXSP,2013-02-19 22:52:00,
2013-02-19 16:55:00,63.3,34.3,30.25,ESE,112,15.0,15.0,34,0.00,,,0.00,WUHU21623XXSP,2013-02-19 22:55:00,
2013-02-19 16:56:00,63.3,34.3,30.25,ESE,112,15.0,19.0,34,0.00,,,0.00,WUHU21623XXSP,2013-02-19 22:56:00,
2013-02-19 16:57:00,63.3,34.3,30.25,ESE,112,12.0,19.0,34,0.00,,,0.00,WUHU21623XXSP,2013-02-19 22:57:00,
2013-02-19 16:58:00,63.3,34.3,30.25,ESE,113,9.0,19.0,34,0.00,,,0.00,WUHU21623XXSP,2013-02-19 22:58:00,
2013-02-19 17:00:00,63.3,34.3,30.25,East,89,9.0,19.0,34,0.00,,,0.00,WUHU21623XXSP,2013-02-19 23:00:00,
2013-02-19 17:02:00,63.3,34.3,30.25,ENE,67,9.0,19.0,34,0.00,,,0.00,WUHU21623XXSP,2013-02-19 23:02:00,
2013-02-19 17:03:00,63.3,34.3,30.25,ESE,112,8.0,19.0,34,0.00,,,0.00,WUHU21623XXSP,2013-02-19 23:03:00,
2013-02-19 17:05:00,63.5,34.4,30.25,East,93,9.0,19.0,34,0.00,,,0.00,WUHU21623XXSP,2013-02-19 23:05:00,
2013-02-19 17:07:00,63.3,34.3,30.25,ESE,109,11.0,13.0,34,0.00,,,0.00,WUHU21623XXSP,2013-02-19 23:07:00,
2013-02-19 17:08:00,63.3,34.3,30.25,East,97,8.0,13.0,34,0.00,,,0.00,WUHU21623XXSP,2013-02-19 23:08:00,
2013-02-19 17:10:00,63.3,34.3,30.25,ESE,106,8.0,13.0,34,0.00,,,0.00,WUHU21623XXSP,2013-02-19 23:10:00,
2013-02-19 17:12:00,63.3,34.3,30.25,ESE,112,11.0,13.0,34,0.00,,,0.00,WUHU21623XXSP,2013-02-19 23:12:00,
2013-02-19 17:13:00,63.3,34.3,30.25,East,90,8.0,13.0,34,0.00,,,0.00,WUHU21623XXSP,2013-02-19 23:13:00,
2013-02-19 17:15:00,63.3,34.3,30.25,ESE,112,12.0,13.0,34,0.00,,,0.00,WUHU21623XXSP,2013-02-19 23:15:00,
2013-02-19 17:17:00,63.3,34.3,30.25,ESE,105,10.0,14.0,34,0.00,,,0.00,WUHU21623XXSP,2013-02-19 23:17:00,
2013-02-19 17:18:00,63.3,34.3,30.25,ESE,104,9.0,14.0,34,0.00,,,0.00,WUHU21623XXSP,2013-02-19 23:18:00,
2013-02-19 17:20:00,63.3,33.5,30.25,East,79,9.0,14.0,33,0.00,,,0.00,WUHU21623XXSP,2013-02-19 23:20:00,
2013-02-19 17:22:00,63.3,33.5,30.25,East,86,7.0,14.0,33,0.00,,,0.00,WUHU21623XXSP,2013-02-19 23:22:00,
2013-02-19 17:23:00,63.3,33.5,30.25,ENE,67,8.0,14.0,33,0.00,,,0.00,WUHU21623XXSP,2013-02-19 23:23:00,
2013-02-19 17:25:00,63.5,33.7,30.25,East,86,10.0,14.0,33,0.00,,,0.00,WUHU21623XXSP,2013-02-19 23:25:00,
2013-02-19 17:28:00,63.5,34.4,30.25,East,85,6.0,12.0,34,0.00,,,0.00,WUHU21623XXSP,2013-02-19 23:28:00,
2013-02-19 17:30:00,63.5,34.4,30.25,ENE,73,5.0,12.0,34,0.00,,,0.00,WUHU21623XXSP,2013-02-19 23:30:00,
2013-02-19 17:33:00,63.5,33.7,30.25,ENE,77,9.0,14.0,33,0.00,,,0.00,WUHU21623XXSP,2013-02-19 23:33:00,
2013-02-19 17:35:00,63.5,33.7,30.26,East,90,11.0,14.0,33,0.00,,,0.00,WUHU21623XXSP,2013-02-19 23:35:00,
2013-02-19 17:38:00,63.5,34.4,30.25,ESE,112,7.0,14.0,34,0.00,,,0.00,WUHU21623XXSP,2013-02-19 23:38:00,
2013-02-19 17:40:00,63.5,34.4,30.26,East,100,6.0,14.0,34,0.00,,,0.00,WUHU21623XXSP,2013-02-19 23:40:00,
2013-02-19 17:43:00,63.5,34.4,30.25,ENE,67,9.0,13.0,34,0.00,,,0.00,WUHU21623XXSP,2013-02-19 23:43:00,
2013-02-19 17:44:00,63.5,34.4,30.25,East,96,9.0,13.0,34,0.00,,,0.00,WUHU21623XXSP,2013-02-19 23:44:00,
2013-02-19 17:45:00,63.5,34.4,30.25,East,94,6.0,13.0,34,0.00,,,0.00,WUHU21623XXSP,2013-02-19 23:45:00,
2013-02-19 17:48:00,63.5,34.4,30.25,East,88,8.0,13.0,34,0.00,,,0.00,WUHU21623XXSP,2013-02-19 23:48:00,
2013-02-19 17:49:00,63.5,34.4,30.25,East,90,8.0,13.0,34,0.00,,,0.00,WUHU21623XXSP,2013-02-19 23:49:00,
2013-02-19 17:51:00,63.3,34.3,30.25,East,93,8.0,14.0,34,0.00,,,0.00,WUHU21623XXSP,2013-02-19 23:51:00,
2013-02-19 17:54:00,63.3,34.3,30.25,ESE,112,6.0,14.0,34,0.00,,,0.00,WUHU21623XXSP,2013-02-19 23:54:00,
2013-02-19 17:56:00,63.1,34.1,30.25,ESE,112,8.0,14.0,34,0.00,,,0.00,WUHU21623XXSP,2013-02-19 23:56:00,
2013-02-19 17:59:00,63.1,34.1,30.25,East,101,6.0,14.0,34,0.00,,,0.00,WUHU21623XXSP,2013-02-19 23:59:00,
2013-02-19 18:01:00,63.1,34.1,30.25,East,90,11.0,11.0,34,0.00,,,0.00,WUHU21623XXSP,2013-02-20 00:01:00,
2013-02-19 18:04:00,63.0,33.9,30.26,East,95,6.0,11.0,34,0.00,,,0.00,WUHU21623XXSP,2013-02-20 00:04:00,
2013-02-19 18:05:00,63.0,33.9,30.26,SE,135,7.0,11.0,34,0.00,,,0.00,WUHU21623XXSP,2013-02-20 00:05:00,
2013-02-19 18:06:00,63.0,33.9,30.25,East,90,7.0,11.0,34,0.00,,,0.00,WUHU21623XXSP,2013-02-20 00:06:00,
2013-02-19 18:09:00,63.0,33.9,30.25,East,101,5.0,11.0,34,0.00,,,0.00,WUHU21623XXSP,2013-02-20 00:09:00,
2013-02-19 18:10:00,63.0,33.9,30.25,East,93,5.0,11.0,34,0.00,,,0.00,WUHU21623XXSP,2013-02-20 00:10:00,
2013-02-19 18:11:00,62.8,33.8,30.25,East,93,7.0,10.0,34,0.00,,,0.00,WUHU21623XXSP,2013-02-20 00:11:00,
2013-02-19 18:14:00,62.8,33.8,30.25,East,101,7.0,10.0,34,0.00,,,0.00,WUHU21623XXSP,2013-02-20 00:14:00,
2013-02-19 18:15:00,62.8,33.8,30.25,ENE,67,7.0,10.0,34,0.00,,,0.00,WUHU21623XXSP,2013-02-20 00:15:00,
2013-02-19 18:16:00,62.8,33.8,30.25,East,90,5.0,10.0,34,0.00,,,0.00,WUHU21623XXSP,2013-02-20 00:16:00,
2013-02-19 18:19:00,62.8,33.8,30.25,ESE,112,6.0,10.0,34,0.00,,,0.00,WUHU21623XXSP,2013-02-20 00:19:00,
2013-02-19 18:20:00,62.6,33.6,30.24,ESE,112,8.0,10.0,34,0.00,,,0.00,WUHU21623XXSP,2013-02-20 00:20:00,
2013-02-19 18:21:00,62.6,33.6,30.24,ESE,107,6.0,10.0,34,0.00,,,0.00,WUHU21623XXSP,2013-02-20 00:21:00,
2013-02-19 18:24:00,62.6,33.6,30.25,ESE,112,5.0,10.0,34,0.00,,,0.00,WUHU21623XXSP,2013-02-20 00:24:00,
2013-02-19 18:25:00,62.6,33.6,30.25,NE,45,7.0,10.0,34,0.00,,,0.00,WUHU21623XXSP,2013-02-20 00:25:00,
2013-02-19 18:27:00,62.6,33.6,30.25,ENE,75,5.0,10.0,34,0.00,,,0.00,WUHU21623XXSP,2013-02-20 00:27:00,
2013-02-19 18:29:00,62.4,33.5,30.25,ESE,104,6.0,10.0,34,0.00,,,0.00,WUHU21623XXSP,2013-02-20 00:29:00,
2013-02-19 18:30:00,62.4,33.5,30.25,East,90,5.0,9.0,34,0.00,,,0.00,WUHU21623XXSP,2013-02-20 00:30:00,
2013-02-19 18:32:00,62.4,33.5,30.25,SE,135,5.0,9.0,34,0.00,,,0.00,WUHU21623XXSP,2013-02-20 00:32:00,
2013-02-19 18:34:00,62.4,33.5,30.26,East,90,7.0,9.0,34,0.00,,,0.00,WUHU21623XXSP,2013-02-20 00:34:00,
2013-02-19 18:35:00,62.4,33.5,30.25,East,90,5.0,9.0,34,0.00,,,0.00,WUHU21623XXSP,2013-02-20 00:35:00,
2013-02-19 18:37:00,62.2,33.3,30.25,East,94,5.0,8.0,34,0.00,,,0.00,WUHU21623XXSP,2013-02-20 00:37:00,
2013-02-19 18:39:00,62.2,33.3,30.25,ESE,112,5.0,8.0,34,0.00,,,0.00,WUHU21623XXSP,2013-02-20 00:39:00,
2013-02-19 18:40:00,62.2,33.3,30.25,ESE,102,4.0,8.0,34,0.00,,,0.00,WUHU21623XXSP,2013-02-20 00:40:00,
2013-02-19 18:41:00,62.2,33.3,30.25,East,90,6.0,8.0,34,0.00,,,0.00,WUHU21623XXSP,2013-02-20 00:41:00,
2013-02-19 18:43:00,62.2,33.3,30.25,ESE,103,6.0,9.0,34,0.00,,,0.00,WUHU21623XXSP,2013-02-20 00:43:00,
2013-02-19 18:44:00,62.2,33.3,30.25,East,95,6.0,10.0,34,0.00,,,0.00,WUHU21623XXSP,2013-02-20 00:44:00,
2013-02-19 18:46:00,62.1,33.1,30.25,East,90,6.0,10.0,34,0.00,,,0.00,WUHU21623XXSP,2013-02-20 00:46:00,
2013-02-19 18:48:00,62.1,33.1,30.25,ESE,112,9.0,10.0,34,0.00,,,0.00,WUHU21623XXSP,2013-02-20 00:48:00,
2013-02-19 18:49:00,61.9,33.0,30.25,ESE,112,7.0,10.0,34,0.00,,,0.00,WUHU21623XXSP,2013-02-20 00:49:00,
2013-02-19 18:51:00,61.9,33.0,30.25,East,96,6.0,10.0,34,0.00,,,0.00,WUHU21623XXSP,2013-02-20 00:51:00,
2013-02-19 18:53:00,61.9,33.0,30.25,East,86,4.0,10.0,34,0.00,,,0.00,WUHU21623XXSP,2013-02-20 00:53:00,
2013-02-19 18:54:00,61.9,33.0,30.25,East,90,10.0,10.0,34,0.00,,,0.00,WUHU21623XXSP,2013-02-20 00:54:00,
2013-02-19 18:56:00,61.7,32.8,30.25,East,97,7.0,10.0,34,0.00,,,0.00,WUHU21623XXSP,2013-02-20 00:56:00,
2013-02-19 18:58:00,61.7,32.8,30.25,ENE,67,8.0,10.0,34,0.00,,,0.00,WUHU21623XXSP,2013-02-20 00:58:00,
2013-02-19 19:00:00,61.7,32.8,30.25,East,90,10.0,10.0,34,0.00,,,0.00,WUHU21623XXSP,2013-02-20 01:00:00,
2013-02-19 19:01:00,61.7,32.8,30.25,East,80,7.0,10.0,34,0.00,,,0.00,WUHU21623XXSP,2013-02-20 01:01:00,
2013-02-19 19:03:00,61.5,32.6,30.25,NE,45,9.0,10.0,34,0.00,,,0.00,WUHU21623XXSP,2013-02-20 01:03:00,
2013-02-19 19:05:00,61.5,32.6,30.25,East,90,10.0,11.0,34,0.00,,,0.00,WUHU21623XXSP,2013-02-20 01:05:00,
2013-02-19 19:06:00,61.5,32.6,30.25,East,87,7.0,11.0,34,0.00,,,0.00,WUHU21623XXSP,2013-02-20 01:06:00,
2013-02-19 19:08:00,61.5,32.6,30.25,East,85,8.0,11.0,34,0.00,,,0.00,WUHU21623XXSP,2013-02-20 01:08:00,
2013-02-19 19:10:00,61.5,33.4,30.25,East,90,9.0,11.0,35,0.00,,,0.00,WUHU21623XXSP,2013-02-20 01:10:00,
2013-02-19 19:11:00,61.3,32.5,30.25,East,87,10.0,11.0,34,0.00,,,0.00,WUHU21623XXSP,2013-02-20 01:11:00,
2013-02-19 19:13:00,61.3,32.5,30.25,East,90,8.0,11.0,34,0.00,,,0.00,WUHU21623XXSP,2013-02-20 01:13:00,
2013-02-19 19:15:00,61.3,33.2,30.25,ESE,104,6.0,11.0,35,0.00,,,0.00,WUHU21623XXSP,2013-02-20 01:15:00,
2013-02-19 19:16:00,61.3,33.2,30.25,ENE,67,10.0,11.0,35,0.00,,,0.00,WUHU21623XXSP,2013-02-20 01:16:00,
2013-02-19 19:17:00,61.3,33.2,30.25,East,90,8.0,11.0,35,0.00,,,0.00,WUHU21623XXSP,2013-02-20 01:17:00,
2013-02-19 19:18:00,61.3,33.2,30.25,East,90,7.0,11.0,35,0.00,,,0.00,WUHU21623XXSP,2013-02-20 01:18:00,
2013-02-19 19:20:00,61.2,33.0,30.25,ESE,102,6.0,11.0,35,0.00,,,0.00,WUHU21623XXSP,2013-02-20 01:20:00,
2013-02-19 19:21:00,61.2,33.0,30.25,ENE,67,6.0,11.0,35,0.00,,,0.00,WUHU21623XXSP,2013-02-20 01:21:00,
2013-02-19 19:22:00,61.2,33.0,30.25,ESE,112,7.0,11.0,35,0.00,,,0.00,WUHU21623XXSP,2013-02-20 01:22:00,
2013-02-19 19:23:00,61.2,33.0,30.25,East,95,8.0,12.0,35,0.00,,,0.00,WUHU21623XXSP,2013-02-20 01:23:00,
2013-02-19 19:25:00,61.2,33.0,30.25,ESE,112,8.0,12.0,35,0.00,,,0.00,WUHU21623XXSP,2013-02-20 01:25:00,
2013-02-19 19:26:00,61.0,32.9,30.25,East,90,8.0,12.0,35,0.00,,,0.00,WUHU21623XXSP,2013-02-20 01:26:00,
2013-02-19 19:27:00,61.0,32.9,30.25,East,79,7.0,12.0,35,0.00,,,0.00,WUHU21623XXSP,2013-02-20 01:27:00,
2013-02-19 19:28:00,61.0,32.9,30.25,ESE,112,7.0,12.0,35,0.00,,,0.00,WUHU21623XXSP,2013-02-20 01:28:00,
2013-02-19 19:31:00,61.0,32.9,30.25,East,84,7.0,12.0,35,0.00,,,0.00,WUHU21623XXSP,2013-02-20 01:31:00,
2013-02-19 19:32:00,61.0,32.9,30.25,ENE,71,6.0,12.0,35,0.00,,,0.00,WUHU21623XXSP,2013-02-20 01:32:00,
2013-02-19 19:33:00,61.0,32.9,30.25,ESE,112,6.0,12.0,35,0.00,,,0.00,WUHU21623XXSP,2013-02-20 01:33:00,
2013-02-19 19:36:00,61.0,32.9,30.25,ENE,67,9.0,12.0,35,0.00,,,0.00,WUHU21623XXSP,2013-02-20 01:36:00,
2013-02-19 19:37:00,61.0,32.9,30.25,East,86,7.0,10.0,35,0.00,,,0.00,WUHU21623XXSP,2013-02-20 01:37:00,
2013-02-19 19:39:00,60.8,32.7,30.25,ESE,105,5.0,10.0,35,0.00,,,0.00,WUHU21623XXSP,2013-02-20 01:39:00,
2013-02-19 19:41:00,60.8,32.7,30.25,ENE,67,6.0,9.0,35,0.00,,,0.00,WUHU21623XXSP,2013-02-20 01:41:00,
2013-02-19 19:42:00,60.8,32.7,30.25,East,90,8.0,9.0,35,0.00,,,0.00,WUHU21623XXSP,2013-02-20 01:42:00,
2013-02-19 19:44:00,60.6,32.6,30.25,East,90,6.0,9.0,35,0.00,,,0.00,WUHU21623XXSP,2013-02-20 01:44:00,
2013-02-19 19:46:00,60.6,32.6,30.25,ENE,67,10.0,10.0,35,0.00,,,0.00,WUHU21623XXSP,2013-02-20 01:46:00,
2013-02-19 19:47:00,60.6,32.6,30.25,East,86,6.0,10.0,35,0.00,,,0.00,WUHU21623XXSP,2013-02-20 01:47:00,
2013-02-19 19:48:00,60.6,32.6,30.25,East,83,7.0,11.0,35,0.00,,,0.00,WUHU21623XXSP,2013-02-20 01:48:00,
2013-02-19 19:49:00,60.6,32.6,30.25,East,94,7.0,11.0,35,0.00,,,0.00,WUHU21623XXSP,2013-02-20 01:49:00,
2013-02-19 19:51:00,60.6,32.6,30.25,ENE,67,9.0,11.0,35,0.00,,,0.00,WUHU21623XXSP,2013-02-20 01:51:00,
2013-02-19 19:52:00,60.6,32.6,30.24,East,80,7.0,11.0,35,0.00,,,0.00,WUHU21623XXSP,2013-02-20 01:52:00,
2013-02-19 19:53:00,60.6,32.6,30.25,ENE,67,7.0,11.0,35,0.00,,,0.00,WUHU21623XXSP,2013-02-20 01:53:00,
2013-02-19 19:54:00,60.6,32.6,30.24,ENE,76,6.0,11.0,35,0.00,,,0.00,WUHU21623XXSP,2013-02-20 01:54:00,
2013-02-19 19:56:00,60.6,32.6,30.25,East,90,7.0,11.0,35,0.00,,,0.00,WUHU21623XXSP,2013-02-20 01:56:00,
2013-02-19 19:57:00,60.6,32.6,30.24,ESE,104,7.0,11.0,35,0.00,,,0.00,WUHU21623XXSP,2013-02-20 01:57:00,
2013-02-19 19:58:00,60.6,32.6,30.24,East,90,8.0,11.0,35,0.00,,,0.00,WUHU21623XXSP,2013-02-20 01:58:00,
2013-02-19 19:59:00,60.6,32.6,30.24,East,86,6.0,11.0,35,0.00,,,0.00,WUHU21623XXSP,2013-02-20 01:59:00,
2013-02-19 20:01:00,60.4,32.4,30.24,East,90,10.0,10.0,35,0.00,,,0.00,WUHU21623XXSP,2013-02-20 02:01:00,
2013-02-19 20:02:00,60.4,32.4,30.24,ESE,112,7.0,10.0,35,0.00,,,0.00,WUHU21623XXSP,2013-02-20 02:02:00,
2013-02-19 20:03:00,60.4,32.4,30.24,East,101,6.0,10.0,35,0.00,,,0.00,WUHU21623XXSP,2013-02-20 02:03:00,
2013-02-19 20:05:00,60.4,32.4,30.24,ESE,112,10.0,11.0,35,0.00,,,0.00,WUHU21623XXSP,2013-02-20 02:05:00,
2013-02-19 20:06:00,60.4,32.4,30.24,East,98,8.0,11.0,35,0.00,,,0.00,WUHU21623XXSP,2013-02-20 02:06:00,
2013-02-19 20:08:00,60.4,32.4,30.24,East,87,8.0,11.0,35,0.00,,,0.00,WUHU21623XXSP,2013-02-20 02:08:00,
2013-02-19 20:10:00,60.4,32.4,30.24,East,81,7.0,11.0,35,0.00,,,0.00,WUHU21623XXSP,2013-02-20 02:10:00,
2013-02-19 20:11:00,60.4,32.4,30.24,South,180,5.0,11.0,35,0.00,,,0.00,WUHU21623XXSP,2013-02-20 02:11:00,
2013-02-19 20:13:00,60.4,32.4,30.24,East,90,9.0,11.0,35,0.00,,,0.00,WUHU21623XXSP,2013-02-20 02:13:00,
2013-02-19 20:15:00,60.3,32.3,30.24,East,90,12.0,12.0,35,0.00,,,0.00,WUHU21623XXSP,2013-02-20 02:15:00,
2013-02-19 20:16:00,60.1,32.1,30.24,East,84,9.0,12.0,35,0.00,,,0.00,WUHU21623XXSP,2013-02-20 02:16:00,
2013-02-19 20:18:00,60.1,32.1,30.24,East,94,6.0,12.0,35,0.00,,,0.00,WUHU21623XXSP,2013-02-20 02:18:00,
2013-02-19 20:20:00,60.1,32.1,30.24,East,90,9.0,12.0,35,0.00,,,0.00,WUHU21623XXSP,2013-02-20 02:20:00,
2013-02-19 20:21:00,60.1,32.1,30.24,ESE,108,6.0,12.0,35,0.00,,,0.00,WUHU21623XXSP,2013-02-20 02:21:00,
2013-02-19 20:23:00,60.1,32.1,30.24,ESE,112,5.0,12.0,35,0.00,,,0.00,WUHU21623XXSP,2013-02-20 02:23:00,
2013-02-19 20:24:00,60.1,32.1,30.25,East,90,5.0,12.0,35,0.00,,,0.00,WUHU21623XXSP,2013-02-20 02:24:00,
2013-02-19 20:25:00,60.1,32.1,30.25,ENE,67,10.0,12.0,35,0.00,,,0.00,WUHU21623XXSP,2013-02-20 02:25:00,
2013-02-19 20:27:00,60.1,32.8,30.24,ESE,112,9.0,10.0,36,0.00,,,0.00,WUHU21623XXSP,2013-02-20 02:27:00,
2013-02-19 20:28:00,60.1,32.8,30.25,ESE,112,6.0,10.0,36,0.00,,,0.00,WUHU21623XXSP,2013-02-20 02:28:00,
2013-02-19 20:29:00,60.1,32.8,30.25,East,90,12.0,12.0,36,0.00,,,0.00,WUHU21623XXSP,2013-02-20 02:29:00,
2013-02-19 20:30:00,60.1,32.8,30.24,East,88,8.0,12.0,36,0.00,,,0.00,WUHU21623XXSP,2013-02-20 02:30:00,
2013-02-19 20:32:00,60.1,32.8,30.25,East,90,9.0,12.0,36,0.00,,,0.00,WUHU21623XXSP,2013-02-20 02:32:00,
2013-02-19 20:33:00,60.1,32.8,30.24,East,90,10.0,12.0,36,0.00,,,0.00,WUHU21623XXSP,2013-02-20 02:33:00,
2013-02-19 20:34:00,60.1,32.8,30.25,East,90,8.0,12.0,36,0.00,,,0.00,WUHU21623XXSP,2013-02-20 02:34:00,
2013-02-19 20:35:00,60.1,32.8,30.25,East,90,9.0,12.0,36,0.00,,,0.00,WUHU21623XXSP,2013-02-20 02:35:00,
2013-02-19 20:37:00,59.9,32.7,30.25,ESE,112,8.0,12.0,36,0.00,,,0.00,WUHU21623XXSP,2013-02-20 02:37:00,
2013-02-19 20:38:00,59.9,32.7,30.24,East,88,7.0,12.0,36,0.00,,,0.00,WUHU21623XXSP,2013-02-20 02:38:00,
2013-02-19 20:39:00,59.9,32.7,30.24,East,94,7.0,10.0,36,0.00,,,0.00,WUHU21623XXSP,2013-02-20 02:39:00,
2013-02-19 20:40:00,59.9,32.7,30.25,ESE,111,5.0,10.0,36,0.00,,,0.00,WUHU21623XXSP,2013-02-20 02:40:00,
2013-02-19 20:42:00,59.9,32.7,30.24,ESE,112,8.0,10.0,36,0.00,,,0.00,WUHU21623XXSP,2013-02-20 02:42:00,
2013-02-19 20:44:00,59.9,32.7,30.25,ESE,104,7.0,12.0,36,0.00,,,0.00,WUHU21623XXSP,2013-02-20 02:44:00,
2013-02-19 20:45:00,59.9,32.7,30.25,East,100,7.0,12.0,36,0.00,,,0.00,WUHU21623XXSP,2013-02-20 02:45:00,
2013-02-19 20:47:00,59.7,32.5,30.25,East,90,7.0,12.0,36,0.00,,,0.00,WUHU21623XXSP,2013-02-20 02:47:00,
2013-02-19 20:49:00,59.7,32.5,30.25,ESE,105,7.0,12.0,36,0.00,,,0.00,WUHU21623XXSP,2013-02-20 02:49:00,
2013-02-19 20:50:00,59.7,32.5,30.25,East,98,6.0,12.0,36,0.00,,,0.00,WUHU21623XXSP,2013-02-20 02:50:00,
2013-02-19 20:52:00,59.7,32.5,30.25,ESE,112,7.0,12.0,36,0.00,,,0.00,WUHU21623XXSP,2013-02-20 02:52:00,
2013-02-19 20:54:00,59.7,32.5,30.25,ESE,112,9.0,10.0,36,0.00,,,0.00,WUHU21623XXSP,2013-02-20 02:54:00,
2013-02-19 20:55:00,59.7,32.5,30.25,ESE,106,7.0,10.0,36,0.00,,,0.00,WUHU21623XXSP,2013-02-20 02:55:00,
2013-02-19 20:57:00,59.7,32.5,30.25,SE,135,8.0,10.0,36,0.00,,,0.00,WUHU21623XXSP,2013-02-20 02:57:00,
2013-02-19 20:59:00,59.5,32.5,30.25,ESE,116,6.0,10.0,36,0.00,,,0.00,WUHU21623XXSP,2013-02-20 02:59:00,
2013-02-19 21:00:00,59.5,32.3,30.26,East,90,11.0,11.0,36,0.00,,,0.00,WUHU21623XXSP,2013-02-20 03:00:00,
2013-02-19 21:02:00,59.5,32.3,30.25,East,88,5.0,11.0,36,0.00,,,0.00,WUHU21623XXSP,2013-02-20 03:02:00,
2013-02-19 21:04:00,59.5,32.3,30.25,ENE,67,8.0,11.0,36,0.00,,,0.00,WUHU21623XXSP,2013-02-20 03:04:00,
2013-02-19 21:06:00,59.5,32.3,30.26,East,88,7.0,11.0,36,0.00,,,0.00,WUHU21623XXSP,2013-02-20 03:06:00,
2013-02-19 21:08:00,59.5,32.3,30.26,ESE,112,8.0,11.0,36,0.00,,,0.00,WUHU21623XXSP,2013-02-20 03:08:00,
2013-02-19 21:09:00,59.5,32.3,30.26,East,90,6.0,11.0,36,0.00,,,0.00,WUHU21623XXSP,2013-02-20 03:09:00,
2013-02-19 21:11:00,59.4,32.2,30.26,East,94,5.0,10.0,36,0.00,,,0.00,WUHU21623XXSP,2013-02-20 03:11:00,
2013-02-19 21:13:00,59.4,32.2,30.26,ESE,112,4.0,10.0,36,0.00,,,0.00,WUHU21623XXSP,2013-02-20 03:13:00,
2013-02-19 21:14:00,59.4,32.2,30.26,SE,135,5.0,10.0,36,0.00,,,0.00,WUHU21623XXSP,2013-02-20 03:14:00,
2013-02-19 21:16:00,59.4,32.2,30.26,East,100,4.0,9.0,36,0.00,,,0.00,WUHU21623XXSP,2013-02-20 03:16:00,
2013-02-19 21:18:00,59.4,32.2,30.26,East,90,7.0,9.0,36,0.00,,,0.00,WUHU21623XXSP,2013-02-20 03:18:00,
2013-02-19 21:19:00,59.4,32.2,30.27,East,92,5.0,9.0,36,0.00,,,0.00,WUHU21623XXSP,2013-02-20 03:19:00,
2013-02-19 21:20:00,59.4,32.2,30.27,East,96,5.0,9.0,36,0.00,,,0.00,WUHU21623XXSP,2013-02-20 03:20:00,
2013-02-19 21:21:00,59.2,32.0,30.26,East,90,8.0,9.0,36,0.00,,,0.00,WUHU21623XXSP,2013-02-20 03:21:00,
2013-02-19 21:23:00,59.2,32.0,30.27,ESE,108,5.0,9.0,36,0.00,,,0.00,WUHU21623XXSP,2013-02-20 03:23:00,
2013-02-19 21:25:00,59.2,32.0,30.27,ESE,122,5.0,9.0,36,0.00,,,0.00,WUHU21623XXSP,2013-02-20 03:25:00,
2013-02-19 21:26:00,59.4,32.2,30.27,ESE,112,10.0,10.0,36,0.00,,,0.00,WUHU21623XXSP,2013-02-20 03:26:00,
2013-02-19 21:28:00,59.2,32.0,30.27,ESE,110,6.0,10.0,36,0.00,,,0.00,WUHU21623XXSP,2013-02-20 03:28:00,
2013-02-19 21:30:00,59.2,32.0,30.27,ESE,112,8.0,10.0,36,0.00,,,0.00,WUHU21623XXSP,2013-02-20 03:30:00,
2013-02-19 21:31:00,59.2,32.0,30.27,East,93,7.0,10.0,36,0.00,,,0.00,WUHU21623XXSP,2013-02-20 03:31:00,
2013-02-19 21:33:00,59.2,32.0,30.27,ESE,112,10.0,10.0,36,0.00,,,0.00,WUHU21623XXSP,2013-02-20 03:33:00,
2013-02-19 21:35:00,59.2,32.0,30.27,ESE,107,8.0,11.0,36,0.00,,,0.00,WUHU21623XXSP,2013-02-20 03:35:00,
2013-02-19 21:36:00,59.2,32.7,30.27,ESE,112,7.0,11.0,37,0.00,,,0.00,WUHU21623XXSP,2013-02-20 03:36:00,
2013-02-19 21:38:00,59.2,32.7,30.27,ENE,67,9.0,11.0,37,0.00,,,0.00,WUHU21623XXSP,2013-02-20 03:38:00,
2013-02-19 21:40:00,59.2,32.7,30.27,East,90,10.0,11.0,37,0.00,,,0.00,WUHU21623XXSP,2013-02-20 03:40:00,
2013-02-19 21:41:00,59.2,32.7,30.27,East,90,6.0,11.0,37,0.00,,,0.00,WUHU21623XXSP,2013-02-20 03:41:00,
2013-02-19 21:43:00,59.0,32.6,30.27,East,85,7.0,11.0,37,0.00,,,0.00,WUHU21623XXSP,2013-02-20 03:43:00,
2013-02-19 21:45:00,59.0,32.6,30.27,ESE,112,8.0,10.0,37,0.00,,,0.00,WUHU21623XXSP,2013-02-20 03:45:00,
2013-02-19 21:46:00,58.8,32.4,30.27,ENE,67,9.0,10.0,37,0.00,,,0.00,WUHU21623XXSP,2013-02-20 03:46:00,
2013-02-19 21:49:00,58.8,32.4,30.27,ESE,102,6.0,10.0,37,0.00,,,0.00,WUHU21623XXSP,2013-02-20 03:49:00,
2013-02-19 21:50:00,58.8,32.4,30.27,East,89,5.0,9.0,37,0.00,,,0.00,WUHU21623XXSP,2013-02-20 03:50:00,
2013-02-19 21:51:00,58.8,32.4,30.27,East,100,6.0,9.0,37,0.00,,,0.00,WUHU21623XXSP,2013-02-20 03:51:00,
2013-02-19 21:54:00,58.8,32.4,30.26,ESE,107,7.0,9.0,37,0.00,,,0.00,WUHU21623XXSP,2013-02-20 03:54:00,
2013-02-19 21:55:00,58.8,32.4,30.26,East,90,7.0,9.0,37,0.00,,,0.00,WUHU21623XXSP,2013-02-20 03:55:00,
2013-02-19 21:57:00,58.8,32.4,30.26,East,82,5.0,9.0,37,0.00,,,0.00,WUHU21623XXSP,2013-02-20 03:57:00,
2013-02-19 21:59:00,58.8,32.4,30.27,ENE,77,7.0,11.0,37,0.00,,,0.00,WUHU21623XXSP,2013-02-20 03:59:00,
2013-02-19 22:00:00,58.8,32.4,30.26,NE,45,6.0,11.0,37,0.00,,,0.00,WUHU21623XXSP,2013-02-20 04:00:00,
2013-02-19 22:01:00,58.8,32.4,30.26,ENE,67,7.0,11.0,37,0.00,,,0.00,WUHU21623XXSP,2013-02-20 04:01:00,
2013-02-19 22:02:00,58.8,32.4,30.26,East,91,5.0,11.0,37,0.00,,,0.00,WUHU21623XXSP,2013-02-20 04:02:00,
2013-02-19 22:04:00,58.8,32.4,30.26,East,90,10.0,11.0,37,0.00,,,0.00,WUHU21623XXSP,2013-02-20 04:04:00,
2013-02-19 22:05:00,58.8,32.4,30.26,ENE,67,10.0,11.0,37,0.00,,,0.00,WUHU21623XXSP,2013-02-20 04:05:00,
2013-02-19 22:06:00,58.8,32.4,30.26,ESE,112,10.0,11.0,37,0.00,,,0.00,WUHU21623XXSP,2013-02-20 04:06:00,
2013-02-19 22:07:00,58.8,32.4,30.26,East,87,6.0,11.0,37,0.00,,,0.00,WUHU21623XXSP,2013-02-20 04:07:00,
2013-02-19 22:09:00,58.8,32.4,30.26,ESE,112,8.0,12.0,37,0.00,,,0.00,WUHU21623XXSP,2013-02-20 04:09:00,
2013-02-19 22:11:00,58.8,32.4,30.26,East,90,9.0,12.0,37,0.00,,,0.00,WUHU21623XXSP,2013-02-20 04:11:00,
2013-02-19 22:12:00,58.8,32.4,30.25,East,97,6.0,12.0,37,0.00,,,0.00,WUHU21623XXSP,2013-02-20 04:12:00,
2013-02-19 22:14:00,58.8,32.4,30.25,ESE,105,6.0,12.0,37,0.00,,,0.00,WUHU21623XXSP,2013-02-20 04:14:00,
2013-02-19 22:16:00,58.8,32.4,30.25,East,99,8.0,12.0,37,0.00,,,0.00,WUHU21623XXSP,2013-02-20 04:16:00,
2013-02-19 22:17:00,58.8,32.4,30.25,East,90,9.0,12.0,37,0.00,,,0.00,WUHU21623XXSP,2013-02-20 04:17:00,
2013-02-19 22:19:00,58.8,33.1,30.25,East,100,6.0,11.0,38,0.00,,,0.00,WUHU21623XXSP,2013-02-20 04:19:00,
2013-02-19 22:21:00,58.8,33.1,30.25,East,90,12.0,12.0,38,0.00,,,0.00,WUHU21623XXSP,2013-02-20 04:21:00,
2013-02-19 22:22:00,58.8,33.1,30.25,ESE,112,8.0,12.0,38,0.00,,,0.00,WUHU21623XXSP,2013-02-20 04:22:00,
2013-02-19 22:24:00,58.8,33.1,30.25,East,92,8.0,12.0,38,0.00,,,0.00,WUHU21623XXSP,2013-02-20 04:24:00,
2013-02-19 22:26:00,58.8,33.1,30.25,ENE,67,9.0,12.0,38,0.00,,,0.00,WUHU21623XXSP,2013-02-20 04:26:00,
2013-02-19 22:27:00,58.8,33.1,30.25,East,84,8.0,12.0,38,0.00,,,0.00,WUHU21623XXSP,2013-02-20 04:27:00,
2013-02-19 22:29:00,58.8,33.1,30.25,ESE,108,6.0,12.0,38,0.00,,,0.00,WUHU21623XXSP,2013-02-20 04:29:00,
2013-02-19 22:31:00,58.8,33.8,30.25,East,90,8.0,11.0,39,0.00,,,0.00,WUHU21623XXSP,2013-02-20 04:31:00,
2013-02-19 22:32:00,58.8,33.8,30.25,SE,135,10.0,11.0,39,0.00,,,0.00,WUHU21623XXSP,2013-02-20 04:32:00,
2013-02-19 22:34:00,58.6,33.7,30.25,East,87,5.0,10.0,39,0.00,,,0.00,WUHU21623XXSP,2013-02-20 04:34:00,
2013-02-19 22:36:00,58.6,33.7,30.25,ESE,107,5.0,10.0,39,0.00,,,0.00,WUHU21623XXSP,2013-02-20 04:36:00,
2013-02-19 22:37:00,58.6,33.7,30.25,ESE,112,6.0,10.0,39,0.00,,,0.00,WUHU21623XXSP,2013-02-20 04:37:00,
2013-02-19 22:39:00,58.5,33.5,30.25,ESE,102,5.0,10.0,39,0.00,,,0.00,WUHU21623XXSP,2013-02-20 04:39:00,
2013-02-19 22:41:00,58.3,33.4,30.25,SE,135,5.0,10.0,39,0.00,,,0.00,WUHU21623XXSP,2013-02-20 04:41:00,
2013-02-19 22:42:00,58.3,33.4,30.25,East,90,5.0,8.0,39,0.00,,,0.00,WUHU21623XXSP,2013-02-20 04:42:00,
2013-02-19 22:44:00,58.3,33.4,30.26,East,96,4.0,8.0,39,0.00,,,0.00,WUHU21623XXSP,2013-02-20 04:44:00,
2013-02-19 22:46:00,58.3,34.1,30.26,ESE,112,8.0,8.0,40,0.00,,,0.00,WUHU21623XXSP,2013-02-20 04:46:00,
2013-02-19 22:47:00,58.3,34.1,30.25,ESE,112,7.0,8.0,40,0.00,,,0.00,WUHU21623XXSP,2013-02-20 04:47:00,
2013-02-19 22:50:00,58.3,34.1,30.26,ESE,103,6.0,8.0,40,0.00,,,0.00,WUHU21623XXSP,2013-02-20 04:50:00,
2013-02-19 22:52:00,58.3,34.1,30.26,ESE,103,5.0,9.0,40,0.00,,,0.00,WUHU21623XXSP,2013-02-20 04:52:00,
2013-02-19 22:53:00,58.3,34.1,30.25,ESE,113,5.0,9.0,40,0.00,,,0.00,WUHU21623XXSP,2013-02-20 04:53:00,
2013-02-19 22:55:00,58.1,33.9,30.25,ESE,112,4.0,9.0,40,0.00,,,0.00,WUHU21623XXSP,2013-02-20 04:55:00,
2013-02-19 22:57:00,58.1,33.9,30.25,East,90,7.0,9.0,40,0.00,,,0.00,WUHU21623XXSP,2013-02-20 04:57:00,
2013-02-19 22:58:00,58.1,33.9,30.25,ESE,112,6.0,9.0,40,0.00,,,0.00,WUHU21623XXSP,2013-02-20 04:58:00,
2013-02-19 23:00:00,58.1,33.9,30.25,ESE,109,5.0,9.0,40,0.00,,,0.00,WUHU21623XXSP,2013-02-20 05:00:00,
2013-02-19 23:05:00,57.9,33.7,30.25,ENE,67,6.0,9.0,40,0.00,,,0.00,WUHU21623XXSP,2013-02-20 05:05:00,
2013-02-19 23:10:00,57.9,34.3,30.25,ESE,106,5.0,9.0,41,0.00,,,0.00,WUHU21623XXSP,2013-02-20 05:10:00,
2013-02-19 23:15:00,57.9,34.3,30.25,East,83,4.0,7.0,41,0.00,,,0.00,WUHU21623XXSP,2013-02-20 05:15:00,
2013-02-19 23:20:00,57.9,34.3,30.25,ENE,67,7.0,9.0,41,0.00,,,0.00,WUHU21623XXSP,2013-02-20 05:20:00,
2013-02-19 23:25:00,57.7,34.1,30.24,ESE,112,10.0,11.0,41,0.00,,,0.00,WUHU21623XXSP,2013-02-20 05:25:00,
2013-02-19 23:30:00,57.7,34.7,30.23,East,95,8.0,12.0,42,0.00,,,0.00,WUHU21623XXSP,2013-02-20 05:30:00,
2013-02-19 23:35:00,57.6,34.6,30.23,ESE,112,8.0,12.0,42,0.00,,,0.00,WUHU21623XXSP,2013-02-20 05:35:00,
2013-02-19 23:36:00,57.6,34.6,30.23,ESE,112,9.0,12.0,42,0.00,,,0.00,WUHU21623XXSP,2013-02-20 05:36:00,
2013-02-19 23:40:00,57.6,34.6,30.23,East,89,6.0,11.0,42,0.00,,,0.00,WUHU21623XXSP,2013-02-20 05:40:00,
2013-02-19 23:41:00,57.4,34.4,30.23,East,95,5.0,11.0,42,0.00,,,0.00,WUHU21623XXSP,2013-02-20 05:41:00,
2013-02-19 23:45:00,57.4,34.4,30.22,East,85,9.0,11.0,42,0.00,,,0.00,WUHU21623XXSP,2013-02-20 05:45:00,
2013-02-19 23:46:00,57.4,34.4,30.22,East,88,8.0,11.0,42,0.00,,,0.00,WUHU21623XXSP,2013-02-20 05:46:00,
2013-02-19 23:50:00,57.4,34.4,30.22,East,90,10.0,12.0,42,0.00,,,0.00,WUHU21623XXSP,2013-02-20 05:50:00,
2013-02-19 23:51:00,57.4,34.4,30.22,East,90,12.0,12.0,42,0.00,,,0.00,WUHU21623XXSP,2013-02-20 05:51:00,
2013-02-19 23:56:00,57.4,34.4,30.22,East,87,6.0,12.0,42,0.00,,,0.00,WUHU21623XXSP,2013-02-20 05:56:00,